Observation data for Coyanosa on 01/18/2019      Previous  Date  Next       Current Mesonet Observations  Soil Data  Daily Summary Page  Observations in Plain Language
KCO1 180600Z 24004KT 09/01 A3007 RMK A01 T00880005  RH  056%=      5-min Rain = 0
KCO1 180601Z 25004KT 09/00 A3007 RMK A01 T00890004  RH  055%=      5-min Rain = 0
KCO1 180602Z 25003KT 09/00 A3007 RMK A01 T00910004  RH  054%=      5-min Rain = 0
KCO1 180603Z 27003KT 09/00 A3007 RMK A01 T00920004  RH  054%=      5-min Rain = 0
KCO1 180604Z 30003KT 09/01 A3007 RMK A01 T00920005  RH  055%=      5-min Rain = 0
KCO1 180605Z 35003KT 09/01 A3007 RMK A01 T00910005  RH  055%=      5-min Rain = 0
KCO1 180606Z 35004KT 09/01 A3007 RMK A01 T00880005  RH  056%=      5-min Rain = 0
KCO1 180607Z 34003KT 08/01 A3007 RMK A01 T00840005  RH  058%=      5-min Rain = 0
KCO1 180608Z 33003KT 08/01 A3007 RMK A01 T00800006  RH  059%=      5-min Rain = 0
KCO1 180609Z 31002KT 08/01 A3007 RMK A01 T00780007  RH  060%=      5-min Rain = 0
KCO1 180610Z 31002KT 08/01 A3007 RMK A01 T00770007  RH  061%=      5-min Rain = 0
KCO1 180611Z 32002KT 08/01 A3007 RMK A01 T00770007  RH  061%=      5-min Rain = 0
KCO1 180612Z 31001KT 08/01 A3007 RMK A01 T00760006  RH  061%=      5-min Rain = 0
KCO1 180613Z 32001KT 08/01 A3007 RMK A01 T00770007  RH  061%=      5-min Rain = 0
KCO1 180614Z 36001KT 08/01 A3007 RMK A01 T00780007  RH  061%=      5-min Rain = 0
KCO1 180615Z 00001KT 08/01 A3007 RMK A01 T00790007  RH  060%=      5-min Rain = 0
KCO1 180616Z 01002KT 08/01 A3007 RMK A01 T00780006  RH  060%=      5-min Rain = 0
KCO1 180617Z 01002KT 08/01 A3007 RMK A01 T00780006  RH  061%=      5-min Rain = 0
KCO1 180618Z 01000KT 08/01 A3007 RMK A01 T00780006  RH  060%=      5-min Rain = 0
KCO1 180619Z 14001KT 08/01 A3007 RMK A01 T00790006  RH  060%=      5-min Rain = 0
KCO1 180620Z 15002KT 08/01 A3007 RMK A01 T00800006  RH  059%=      5-min Rain = 0
KCO1 180621Z 17002KT 08/01 A3007 RMK A01 T00820006  RH  059%=      5-min Rain = 0
KCO1 180622Z 16003KT 08/01 A3007 RMK A01 T00830006  RH  058%=      5-min Rain = 0
KCO1 180623Z 16003KT 08/01 A3007 RMK A01 T00820007  RH  059%=      5-min Rain = 0
KCO1 180624Z 15002KT 08/01 A3007 RMK A01 T00790007  RH  060%=      5-min Rain = 0
KCO1 180625Z 16002KT 08/01 A3007 RMK A01 T00770008  RH  062%=      5-min Rain = 0
KCO1 180626Z 17001KT 08/01 A3007 RMK A01 T00760008  RH  062%=      5-min Rain = 0
KCO1 180627Z 17001KT 07/01 A3007 RMK A01 T00740009  RH  063%=      5-min Rain = 0
KCO1 180628Z 17001KT 07/01 A3007 RMK A01 T00730009  RH  064%=      5-min Rain = 0
KCO1 180629Z 19001KT 07/01 A3007 RMK A01 T00730009  RH  064%=      5-min Rain = 0
KCO1 180630Z 20002KT 07/01 A3007 RMK A01 T00720009  RH  064%=      5-min Rain = 0
KCO1 180631Z 22002KT 07/01 A3007 RMK A01 T00720008  RH  064%=      5-min Rain = 0
KCO1 180632Z 22002KT 07/01 A3007 RMK A01 T00720009  RH  064%=      5-min Rain = 0
KCO1 180633Z 21003KT 07/01 A3006 RMK A01 T00720009  RH  064%=      5-min Rain = 0
KCO1 180634Z 20003KT 07/01 A3006 RMK A01 T00720008  RH  064%=      5-min Rain = 0
KCO1 180635Z 19004KT 07/01 A3006 RMK A01 T00720009  RH  064%=      5-min Rain = 0
KCO1 180636Z 20004KT 07/01 A3006 RMK A01 T00720009  RH  064%=      5-min Rain = 0
KCO1 180637Z 21003KT 07/01 A3006 RMK A01 T00740008  RH  063%=      5-min Rain = 0
KCO1 180638Z 22003KT 08/01 A3006 RMK A01 T00760008  RH  062%=      5-min Rain = 0
KCO1 180639Z 23002KT 08/01 A3006 RMK A01 T00760009  RH  063%=      5-min Rain = 0
KCO1 180640Z 26001KT 08/01 A3006 RMK A01 T00750010  RH  063%=      5-min Rain = 0
KCO1 180641Z 23002KT 08/01 A3006 RMK A01 T00750010  RH  063%=      5-min Rain = 0
KCO1 180642Z 20003KT 08/01 A3006 RMK A01 T00750009  RH  063%=      5-min Rain = 0
KCO1 180643Z 19004KT 08/01 A3006 RMK A01 T00760008  RH  062%=      5-min Rain = 0
KCO1 180644Z 19005KT 08/01 A3006 RMK A01 T00790007  RH  061%=      5-min Rain = 0
KCO1 180645Z 19006KT 08/01 A3006 RMK A01 T00810007  RH  060%=      5-min Rain = 0
KCO1 180646Z 18005KT 08/01 A3006 RMK A01 T00820007  RH  059%=      5-min Rain = 0
KCO1 180647Z 19005KT 08/01 A3005 RMK A01 T00810007  RH  060%=      5-min Rain = 0
KCO1 180648Z 19005KT 08/01 A3005 RMK A01 T00800008  RH  060%=      5-min Rain = 0
KCO1 180649Z 19004KT 08/01 A3005 RMK A01 T00780008  RH  061%=      5-min Rain = 0
KCO1 180650Z 19004KT 08/01 A3005 RMK A01 T00770009  RH  062%=      5-min Rain = 0
KCO1 180651Z 20004KT 08/01 A3005 RMK A01 T00760008  RH  062%=      5-min Rain = 0
KCO1 180652Z 19004KT 08/01 A3005 RMK A01 T00760008  RH  062%=      5-min Rain = 0
KCO1 180653Z 19004KT 08/01 A3005 RMK A01 T00760009  RH  062%=      5-min Rain = 0
KCO1 180654Z 21004KT 08/01 A3005 RMK A01 T00750009  RH  063%=      5-min Rain = 0
KCO1 180655Z 20004KT 07/01 A3005 RMK A01 T00740009  RH  064%=      5-min Rain = 0
KCO1 180656Z 20005KT 07/01 A3005 RMK A01 T00740009  RH  064%=      5-min Rain = 0
KCO1 180657Z 21004KT 07/01 A3005 RMK A01 T00740009  RH  063%=      5-min Rain = 0
KCO1 180658Z 21005KT 08/01 A3005 RMK A01 T00750008  RH  063%=      5-min Rain = 0
KCO1 180659Z 20004KT 08/01 A3005 RMK A01 T00770008  RH  061%=      5-min Rain = 0
KCO1 180700Z 20005KT 08/01 A3005 RMK A01 T00790009  RH  061%=      5-min Rain = 0
KCO1 180701Z 21005KT 08/01 A3005 RMK A01 T00780008  RH  061%=      5-min Rain = 0
KCO1 180702Z 21005KT 08/01 A3005 RMK A01 T00780009  RH  061%=      5-min Rain = 0
KCO1 180703Z 19005KT 08/01 A3005 RMK A01 T00780008  RH  061%=      5-min Rain = 0
KCO1 180704Z 20006KT 08/01 A3005 RMK A01 T00790008  RH  061%=      5-min Rain = 0
KCO1 180705Z 21005KT 08/01 A3005 RMK A01 T00790007  RH  060%=      5-min Rain = 0
KCO1 180706Z 21005KT 08/01 A3005 RMK A01 T00790007  RH  060%=      5-min Rain = 0
KCO1 180707Z 20004KT 08/01 A3005 RMK A01 T00790008  RH  060%=      5-min Rain = 0
KCO1 180708Z 20004KT 08/01 A3005 RMK A01 T00790007  RH  060%=      5-min Rain = 0
KCO1 180709Z 21003KT 08/01 A3005 RMK A01 T00790008  RH  061%=      5-min Rain = 0
KCO1 180710Z 22003KT 08/01 A3005 RMK A01 T00790007  RH  060%=      5-min Rain = 0
KCO1 180711Z 20003KT 08/01 A3004 RMK A01 T00780006  RH  061%=      5-min Rain = 0
KCO1 180712Z 20003KT 08/01 A3004 RMK A01 T00770006  RH  061%=      5-min Rain = 0
KCO1 180713Z 22002KT 08/01 A3005 RMK A01 T00770006  RH  061%=      5-min Rain = 0
KCO1 180714Z 22004KT 08/01 A3005 RMK A01 T00770005  RH  061%=      5-min Rain = 0
KCO1 180715Z 21003KT 08/01 A3004 RMK A01 T00770006  RH  061%=      5-min Rain = 0
KCO1 180716Z 22002KT 08/01 A3004 RMK A01 T00760005  RH  061%=      5-min Rain = 0
KCO1 180717Z 23003KT 08/01 A3004 RMK A01 T00770005  RH  061%=      5-min Rain = 0
KCO1 180718Z 22002KT 08/01 A3004 RMK A01 T00760006  RH  061%=      5-min Rain = 0
KCO1 180719Z 23001KT 08/01 A3004 RMK A01 T00770006  RH  061%=      5-min Rain = 0
KCO1 180720Z 25002KT 08/01 A3004 RMK A01 T00770006  RH  061%=      5-min Rain = 0
KCO1 180721Z 22001KT 08/01 A3004 RMK A01 T00770007  RH  061%=      5-min Rain = 0
KCO1 180722Z 19003KT 08/01 A3004 RMK A01 T00770006  RH  061%=      5-min Rain = 0
KCO1 180723Z 18003KT 08/01 A3004 RMK A01 T00770006  RH  061%=      5-min Rain = 0
KCO1 180724Z 18003KT 08/01 A3004 RMK A01 T00780005  RH  060%=      5-min Rain = 0
KCO1 180725Z 19004KT 08/01 A3004 RMK A01 T00800005  RH  059%=      5-min Rain = 0
KCO1 180726Z 18002KT 08/01 A3004 RMK A01 T00810005  RH  059%=      5-min Rain = 0
KCO1 180727Z 17002KT 08/01 A3004 RMK A01 T00810005  RH  058%=      5-min Rain = 0
KCO1 180728Z 18002KT 08/01 A3004 RMK A01 T00820005  RH  058%=      5-min Rain = 0
KCO1 180729Z 19003KT 08/01 A3004 RMK A01 T00810005  RH  059%=      5-min Rain = 0
KCO1 180730Z 20003KT 08/01 A3004 RMK A01 T00800005  RH  059%=      5-min Rain = 0
KCO1 180731Z 20003KT 08/01 A3004 RMK A01 T00790005  RH  060%=      5-min Rain = 0
KCO1 180732Z 19003KT 08/01 A3004 RMK A01 T00770006  RH  061%=      5-min Rain = 0
KCO1 180733Z 20005KT 07/01 A3004 RMK A01 T00740006  RH  062%=      5-min Rain = 0
KCO1 180734Z 19004KT 07/01 A3003 RMK A01 T00720007  RH  063%=      5-min Rain = 0
KCO1 180735Z 19005KT 07/01 A3003 RMK A01 T00700007  RH  064%=      5-min Rain = 0
KCO1 180736Z 20005KT 07/01 A3003 RMK A01 T00690006  RH  064%=      5-min Rain = 0
KCO1 180737Z 21005KT 07/01 A3003 RMK A01 T00700006  RH  064%=      5-min Rain = 0
KCO1 180738Z 20005KT 07/01 A3003 RMK A01 T00710006  RH  063%=      5-min Rain = 0
KCO1 180739Z 20005KT 07/01 A3003 RMK A01 T00720006  RH  063%=      5-min Rain = 0
KCO1 180740Z 21004KT 07/01 A3003 RMK A01 T00730006  RH  062%=      5-min Rain = 0
KCO1 180741Z 21004KT 07/01 A3003 RMK A01 T00740006  RH  062%=      5-min Rain = 0
KCO1 180742Z 21005KT 07/01 A3003 RMK A01 T00740006  RH  062%=      5-min Rain = 0
KCO1 180743Z 20003KT 07/01 A3003 RMK A01 T00740006  RH  062%=      5-min Rain = 0
KCO1 180744Z 22004KT 08/01 A3003 RMK A01 T00750006  RH  062%=      5-min Rain = 0
KCO1 180745Z 21003KT 08/01 A3003 RMK A01 T00750006  RH  061%=      5-min Rain = 0
KCO1 180746Z 19003KT 08/01 A3003 RMK A01 T00750006  RH  061%=      5-min Rain = 0
KCO1 180747Z 20003KT 08/01 A3003 RMK A01 T00750005  RH  061%=      5-min Rain = 0
KCO1 180748Z 23002KT 07/01 A3003 RMK A01 T00740005  RH  061%=      5-min Rain = 0
KCO1 180749Z 22002KT 07/01 A3003 RMK A01 T00740005  RH  062%=      5-min Rain = 0
KCO1 180750Z 22003KT 07/01 A3003 RMK A01 T00740005  RH  062%=      5-min Rain = 0
KCO1 180751Z 22004KT 07/00 A3003 RMK A01 T00730004  RH  061%=      5-min Rain = 0
KCO1 180752Z 19003KT 07/00 A3003 RMK A01 T00730004  RH  061%=      5-min Rain = 0
KCO1 180753Z 21002KT 07/00 A3003 RMK A01 T00740004  RH  061%=      5-min Rain = 0
KCO1 180754Z 20001KT 08/00 A3003 RMK A01 T00750004  RH  061%=      5-min Rain = 0
KCO1 180755Z 20002KT 07/00 A3003 RMK A01 T00740003  RH  060%=      5-min Rain = 0
KCO1 180756Z 20002KT 08/00 A3003 RMK A01 T00750003  RH  060%=      5-min Rain = 0
KCO1 180757Z 21002KT 08/00 A3003 RMK A01 T00750003  RH  060%=      5-min Rain = 0
KCO1 180758Z 20002KT 08/00 A3003 RMK A01 T00750003  RH  060%=      5-min Rain = 0
KCO1 180759Z 20002KT 08/00 A3003 RMK A01 T00750003  RH  060%=      5-min Rain = 0
KCO1 180800Z 20003KT 08/00 A3003 RMK A01 T00750003  RH  060%=      5-min Rain = 0
KCO1 180801Z 20003KT 08/00 A3003 RMK A01 T00750003  RH  060%=      5-min Rain = 0
KCO1 180802Z 20004KT 08/00 A3003 RMK A01 T00760003  RH  060%=      5-min Rain = 0
KCO1 180803Z 20005KT 08/00 A3003 RMK A01 T00760003  RH  060%=      5-min Rain = 0
KCO1 180804Z 20005KT 08/00 A3003 RMK A01 T00770003  RH  060%=      5-min Rain = 0
KCO1 180805Z 20005KT 08/00 A3003 RMK A01 T00770003  RH  060%=      5-min Rain = 0
KCO1 180806Z 20005KT 08/00 A3003 RMK A01 T00770004  RH  060%=      5-min Rain = 0
KCO1 180807Z 20006KT 08/00 A3003 RMK A01 T00760004  RH  060%=      5-min Rain = 0
KCO1 180808Z 19007KT 08/00 A3003 RMK A01 T00760004  RH  061%=      5-min Rain = 0
KCO1 180809Z 20007KT 08/00 A3003 RMK A01 T00750004  RH  061%=      5-min Rain = 0
KCO1 180810Z 20007KT 07/00 A3003 RMK A01 T00740004  RH  061%=      5-min Rain = 0
KCO1 180811Z 20008KT 07/00 A3003 RMK A01 T00730004  RH  062%=      5-min Rain = 0
KCO1 180812Z 20007KT 07/00 A3003 RMK A01 T00720004  RH  062%=      5-min Rain = 0
KCO1 180813Z 19008KT 07/00 A3003 RMK A01 T00740004  RH  061%=      5-min Rain = 0
KCO1 180814Z 19009KT 08/00 A3003 RMK A01 T00750004  RH  061%=      5-min Rain = 0
KCO1 180815Z 19009KT 08/00 A3003 RMK A01 T00760004  RH  060%=      5-min Rain = 0
KCO1 180816Z 19008KT 08/00 A3003 RMK A01 T00760004  RH  060%=      5-min Rain = 0
KCO1 180817Z 19009KT 08/01 A3003 RMK A01 T00760005  RH  061%=      5-min Rain = 0
KCO1 180818Z 19008KT 08/00 A3003 RMK A01 T00750004  RH  061%=      5-min Rain = 0
KCO1 180819Z 19008KT 08/01 A3003 RMK A01 T00750005  RH  061%=      5-min Rain = 0
KCO1 180820Z 19008KT 07/01 A3003 RMK A01 T00740006  RH  062%=      5-min Rain = 0
KCO1 180821Z 19008KT 07/01 A3003 RMK A01 T00730006  RH  062%=      5-min Rain = 0
KCO1 180822Z 19008KT 07/01 A3003 RMK A01 T00720005  RH  062%=      5-min Rain = 0
KCO1 180823Z 18008KT 07/01 A3003 RMK A01 T00710006  RH  063%=      5-min Rain = 0
KCO1 180824Z 18008KT 07/01 A3003 RMK A01 T00700005  RH  063%=      5-min Rain = 0
KCO1 180825Z 19007KT 07/01 A3003 RMK A01 T00700005  RH  063%=      5-min Rain = 0
KCO1 180826Z 18007KT 07/01 A3003 RMK A01 T00690006  RH  064%=      5-min Rain = 0
KCO1 180827Z 18007KT 07/01 A3002 RMK A01 T00680006  RH  064%=      5-min Rain = 0
KCO1 180828Z 19006KT 07/01 A3003 RMK A01 T00680006  RH  065%=      5-min Rain = 0
KCO1 180829Z 19005KT 07/01 A3003 RMK A01 T00670006  RH  065%=      5-min Rain = 0
KCO1 180830Z 19005KT 07/01 A3003 RMK A01 T00670006  RH  065%=      5-min Rain = 0
KCO1 180831Z 19005KT 07/01 A3003 RMK A01 T00670005  RH  065%=      5-min Rain = 0
KCO1 180832Z 20005KT 07/01 A3002 RMK A01 T00670006  RH  065%=      5-min Rain = 0
KCO1 180833Z 20005KT 07/01 A3002 RMK A01 T00670006  RH  065%=      5-min Rain = 0
KCO1 180834Z 20005KT 07/01 A3002 RMK A01 T00670006  RH  065%=      5-min Rain = 0
KCO1 180835Z 19005KT 07/01 A3002 RMK A01 T00670006  RH  065%=      5-min Rain = 0
KCO1 180836Z 18005KT 07/01 A3002 RMK A01 T00670006  RH  065%=      5-min Rain = 0
KCO1 180837Z 18005KT 07/01 A3002 RMK A01 T00660006  RH  066%=      5-min Rain = 0
KCO1 180838Z 18005KT 06/01 A3002 RMK A01 T00640006  RH  066%=      5-min Rain = 0
KCO1 180839Z 18005KT 06/01 A3002 RMK A01 T00640007  RH  067%=      5-min Rain = 0
KCO1 180840Z 18005KT 06/01 A3002 RMK A01 T00630006  RH  067%=      5-min Rain = 0
KCO1 180841Z 18004KT 06/01 A3002 RMK A01 T00630006  RH  067%=      5-min Rain = 0
KCO1 180842Z 20005KT 06/01 A3002 RMK A01 T00620005  RH  067%=      5-min Rain = 0
KCO1 180843Z 20004KT 06/01 A3002 RMK A01 T00640005  RH  066%=      5-min Rain = 0
KCO1 180844Z 21003KT 07/01 A3002 RMK A01 T00650005  RH  065%=      5-min Rain = 0
KCO1 180845Z 21003KT 07/01 A3002 RMK A01 T00650005  RH  065%=      5-min Rain = 0
KCO1 180846Z 21004KT 07/01 A3002 RMK A01 T00660005  RH  065%=      5-min Rain = 0
KCO1 180847Z 21004KT 07/01 A3002 RMK A01 T00680005  RH  064%=      5-min Rain = 0
KCO1 180848Z 21004KT 07/01 A3002 RMK A01 T00690005  RH  064%=      5-min Rain = 0
KCO1 180849Z 21003KT 07/01 A3002 RMK A01 T00690005  RH  064%=      5-min Rain = 0
KCO1 180850Z 21003KT 07/01 A3002 RMK A01 T00690006  RH  064%=      5-min Rain = 0
KCO1 180851Z 20004KT 07/01 A3002 RMK A01 T00690006  RH  065%=      5-min Rain = 0
KCO1 180852Z 21004KT 07/01 A3002 RMK A01 T00680007  RH  065%=      5-min Rain = 0
KCO1 180853Z 21005KT 07/01 A3002 RMK A01 T00680007  RH  065%=      5-min Rain = 0
KCO1 180854Z 20005KT 07/01 A3002 RMK A01 T00670007  RH  065%=      5-min Rain = 0
KCO1 180855Z 20004KT 07/01 A3002 RMK A01 T00670007  RH  065%=      5-min Rain = 0
KCO1 180856Z 21004KT 07/01 A3002 RMK A01 T00670007  RH  065%=      5-min Rain = 0
KCO1 180857Z 22004KT 07/01 A3002 RMK A01 T00670007  RH  065%=      5-min Rain = 0
KCO1 180858Z 22005KT 07/01 A3002 RMK A01 T00680007  RH  065%=      5-min Rain = 0
KCO1 180859Z 22005KT 07/01 A3002 RMK A01 T00670006  RH  065%=      5-min Rain = 0
KCO1 180900Z 22005KT 07/01 A3002 RMK A01 T00660006  RH  066%=      5-min Rain = 0
KCO1 180901Z 21006KT 07/01 A3002 RMK A01 T00650006  RH  066%=      5-min Rain = 0
KCO1 180902Z 22006KT 07/01 A3002 RMK A01 T00650007  RH  066%=      5-min Rain = 0
KCO1 180903Z 22006KT 07/01 A3002 RMK A01 T00650007  RH  066%=      5-min Rain = 0
KCO1 180904Z 22005KT 06/01 A3002 RMK A01 T00640006  RH  067%=      5-min Rain = 0
KCO1 180905Z 22006KT 06/01 A3002 RMK A01 T00640006  RH  067%=      5-min Rain = 0
KCO1 180906Z 22006KT 06/01 A3002 RMK A01 T00640007  RH  067%=      5-min Rain = 0
KCO1 180907Z 22006KT 06/01 A3002 RMK A01 T00640007  RH  067%=      5-min Rain = 0
KCO1 180908Z 22006KT 06/01 A3002 RMK A01 T00640007  RH  067%=      5-min Rain = 0
KCO1 180909Z 22007KT 06/01 A3002 RMK A01 T00640007  RH  067%=      5-min Rain = 0
KCO1 180910Z 22007KT 06/01 A3002 RMK A01 T00640007  RH  067%=      5-min Rain = 0
KCO1 180911Z 22007KT 07/01 A3002 RMK A01 T00650007  RH  066%=      5-min Rain = 0
KCO1 180912Z 22007KT 07/01 A3002 RMK A01 T00660007  RH  066%=      5-min Rain = 0
KCO1 180913Z 22007KT 07/01 A3002 RMK A01 T00670007  RH  066%=      5-min Rain = 0
KCO1 180914Z 22007KT 07/01 A3001 RMK A01 T00680007  RH  065%=      5-min Rain = 0
KCO1 180915Z 22007KT 07/01 A3001 RMK A01 T00680007  RH  065%=      5-min Rain = 0
KCO1 180916Z 22006KT 07/01 A3001 RMK A01 T00700008  RH  065%=      5-min Rain = 0
KCO1 180917Z 23007KT 07/01 A3001 RMK A01 T00710008  RH  064%=      5-min Rain = 0
KCO1 180918Z 23008KT 07/01 A3001 RMK A01 T00730009  RH  064%=      5-min Rain = 0
KCO1 180919Z 22007KT 07/01 A3001 RMK A01 T00740008  RH  063%=      5-min Rain = 0
KCO1 180920Z 23008KT 08/01 A3001 RMK A01 T00750009  RH  063%=      5-min Rain = 0
KCO1 180921Z 22008KT 08/01 A3001 RMK A01 T00760009  RH  063%=      5-min Rain = 0
KCO1 180922Z 22007KT 08/01 A3001 RMK A01 T00770009  RH  062%=      5-min Rain = 0
KCO1 180923Z 22007KT 08/01 A3001 RMK A01 T00780009  RH  062%=      5-min Rain = 0
KCO1 180924Z 22006KT 08/01 A3001 RMK A01 T00780009  RH  062%=      5-min Rain = 0
KCO1 180925Z 23006KT 08/01 A3001 RMK A01 T00780009  RH  062%=      5-min Rain = 0
KCO1 180926Z 23006KT 08/01 A3001 RMK A01 T00780009  RH  062%=      5-min Rain = 0
KCO1 180927Z 23006KT 08/01 A3001 RMK A01 T00780009  RH  062%=      5-min Rain = 0
KCO1 180928Z 24005KT 08/01 A3001 RMK A01 T00770009  RH  062%=      5-min Rain = 0
KCO1 180929Z 24005KT 08/01 A3001 RMK A01 T00770009  RH  062%=      5-min Rain = 0
KCO1 180930Z 25005KT 08/01 A3001 RMK A01 T00770009  RH  062%=      5-min Rain = 0
KCO1 180931Z 25003KT 08/01 A3001 RMK A01 T00770009  RH  062%=      5-min Rain = 0
KCO1 180932Z 28003KT 08/01 A3001 RMK A01 T00770009  RH  062%=      5-min Rain = 0
KCO1 180933Z 28003KT 08/01 A3001 RMK A01 T00760008  RH  062%=      5-min Rain = 0
KCO1 180934Z 28004KT 07/01 A3001 RMK A01 T00720006  RH  063%=      5-min Rain = 0
KCO1 180935Z 29003KT 07/01 A3001 RMK A01 T00690005  RH  064%=      5-min Rain = 0
KCO1 180936Z 30002KT 07/01 A3001 RMK A01 T00690005  RH  064%=      5-min Rain = 0
KCO1 180937Z 30004KT 07/01 A3001 RMK A01 T00670005  RH  064%=      5-min Rain = 0
KCO1 180938Z 33003KT 07/01 A3001 RMK A01 T00670005  RH  065%=      5-min Rain = 0
KCO1 180939Z 35004KT 07/00 A3001 RMK A01 T00650004  RH  065%=      5-min Rain = 0
KCO1 180940Z 33005KT 06/00 A3001 RMK A01 T00620003  RH  066%=      5-min Rain = 0
KCO1 180941Z 35005KT 06/00 A3001 RMK A01 T00600003  RH  067%=      5-min Rain = 0
KCO1 180942Z 35005KT 06/00 A30 RMK A01 T00590003  RH  067%=      5-min Rain = 0
KCO1 180943Z 33005KT 06/00 A3001 RMK A01 T00570002  RH  068%=      5-min Rain = 0
KCO1 180944Z 33004KT 06/00 A3001 RMK A01 T00560002  RH  068%=      5-min Rain = 0
KCO1 180945Z 33001KT 06/00 A30 RMK A01 T00550002  RH  069%=      5-min Rain = 0
KCO1 180946Z 30002KT 06/00 A30 RMK A01 T00550002  RH  069%=      5-min Rain = 0
KCO1 180947Z 29003KT 06/00 A30 RMK A01 T00550002  RH  069%=      5-min Rain = 0
KCO1 180948Z 26002KT 05/00 A30 RMK A01 T00540003  RH  069%=      5-min Rain = 0
KCO1 180949Z 24002KT 05/00 A30 RMK A01 T00530003  RH  070%=      5-min Rain = 0
KCO1 180950Z 25002KT 05/00 A30 RMK A01 T00520003  RH  071%=      5-min Rain = 0
KCO1 180951Z 27002KT 05/00 A30 RMK A01 T00500003  RH  071%=      5-min Rain = 0
KCO1 180952Z 28001KT 05/00 A30 RMK A01 T00490002  RH  072%=      5-min Rain = 0
KCO1 180953Z 28001KT 05/00 A30 RMK A01 T00490003  RH  072%=      5-min Rain = 0
KCO1 180954Z 31002KT 05/00 A30 RMK A01 T00480002  RH  072%=      5-min Rain = 0
KCO1 180955Z 31001KT 05/00 A30 RMK A01 T00480003  RH  073%=      5-min Rain = 0
KCO1 180956Z 31001KT 05/00 A30 RMK A01 T00470003  RH  073%=      5-min Rain = 0
KCO1 180957Z 31000KT 05/00 A30 RMK A01 T00470003  RH  073%=      5-min Rain = 0
KCO1 180958Z 00000KT 05/00 A30 RMK A01 T00470004  RH  073%=      5-min Rain = 0
KCO1 180959Z 02001KT 05/01 A30 RMK A01 T00490005  RH  073%=      5-min Rain = 0
KCO1 181000Z 02002KT 05/01 A30 RMK A01 T00500005  RH  073%=      5-min Rain = 0
KCO1 181001Z 02003KT 05/00 A30 RMK A01 T00480003  RH  073%=      5-min Rain = 0
KCO1 181002Z 02004KT 05/00 A30 RMK A01 T00460002  RH  073%=      5-min Rain = 0
KCO1 181003Z 02004KT 04/00 A30 RMK A01 T00440002  RH  074%=      5-min Rain = 0
KCO1 181004Z 03004KT 04/00 A30 RMK A01 T00430003  RH  075%=      5-min Rain = 0
KCO1 181005Z 03004KT 04/00 A30 RMK A01 T00430003  RH  076%=      5-min Rain = 0
KCO1 181006Z 04003KT 04/00 A30 RMK A01 T00430004  RH  076%=      5-min Rain = 0
KCO1 181007Z 04003KT 04/01 A30 RMK A01 T00430005  RH  076%=      5-min Rain = 0
KCO1 181008Z 05003KT 04/01 A30 RMK A01 T00440006  RH  076%=      5-min Rain = 0
KCO1 181009Z 05004KT 05/01 A30 RMK A01 T00450006  RH  076%=      5-min Rain = 0
KCO1 181010Z 04003KT 05/01 A30 RMK A01 T00450006  RH  076%=      5-min Rain = 0
KCO1 181011Z 04003KT 04/01 A30 RMK A01 T00440006  RH  076%=      5-min Rain = 0
KCO1 181012Z 02003KT 04/01 A30 RMK A01 T00440006  RH  076%=      5-min Rain = 0
KCO1 181013Z 01003KT 04/01 A30 RMK A01 T00440006  RH  077%=      5-min Rain = 0
KCO1 181014Z 01003KT 04/01 A30 RMK A01 T00430006  RH  077%=      5-min Rain = 0
KCO1 181015Z 01003KT 04/01 A30 RMK A01 T00430006  RH  077%=      5-min Rain = 0
KCO1 181016Z 01003KT 04/01 A30 RMK A01 T00430006  RH  077%=      5-min Rain = 0
KCO1 181017Z 01003KT 04/01 A30 RMK A01 T00430006  RH  077%=      5-min Rain = 0
KCO1 181018Z 01003KT 04/01 A30 RMK A01 T00430005  RH  076%=      5-min Rain = 0
KCO1 181019Z 01002KT 04/01 A30 RMK A01 T00420005  RH  077%=      5-min Rain = 0
KCO1 181020Z 01001KT 04/00 A30 RMK A01 T00410004  RH  077%=      5-min Rain = 0
KCO1 181021Z 01000KT 04/00 A30 RMK A01 T00400004  RH  077%=      5-min Rain = 0
KCO1 181022Z 01000KT 04/01 A30 RMK A01 T00390005  RH  078%=      5-min Rain = 0
KCO1 181023Z 00000KT 04/01 A2999 RMK A01 T00390005  RH  079%=      5-min Rain = 0
KCO1 181024Z 00000KT 04/01 A2999 RMK A01 T00390006  RH  079%=      5-min Rain = 0
KCO1 181025Z 00000KT 04/01 A2999 RMK A01 T00390006  RH  079%=      5-min Rain = 0
KCO1 181026Z 11000KT 04/01 A2999 RMK A01 T00410008  RH  079%=      5-min Rain = 0
KCO1 181027Z 11001KT 04/01 A2999 RMK A01 T00420007  RH  078%=      5-min Rain = 0
KCO1 181028Z 12001KT 04/01 A2999 RMK A01 T00420005  RH  077%=      5-min Rain = 0
KCO1 181029Z 12001KT 04/00 A2999 RMK A01 T00400003  RH  077%=      5-min Rain = 0
KCO1 181030Z 12001KT 04/00 A2999 RMK A01 T00390002  RH  077%=      5-min Rain = 0
KCO1 181031Z 12001KT 04/00 A2999 RMK A01 T00370002  RH  077%=      5-min Rain = 0
KCO1 181032Z 12000KT 04/00 A2999 RMK A01 T00370002  RH  078%=      5-min Rain = 0
KCO1 181033Z 12000KT 04/00 A2999 RMK A01 T00360003  RH  079%=      5-min Rain = 0
KCO1 181034Z 00000KT 04/00 A2999 RMK A01 T00360003  RH  079%=      5-min Rain = 0
KCO1 181035Z 00000KT 04/00 A2999 RMK A01 T00360004  RH  080%=      5-min Rain = 0
KCO1 181036Z 00000KT 04/00 A2999 RMK A01 T00360004  RH  080%=      5-min Rain = 0
KCO1 181037Z 12000KT 04/00 A2999 RMK A01 T00350004  RH  080%=      5-min Rain = 0
KCO1 181038Z 12001KT 04/00 A2999 RMK A01 T00350004  RH  080%=      5-min Rain = 0
KCO1 181039Z 12000KT 04/00 A2999 RMK A01 T00350004  RH  080%=      5-min Rain = 0
KCO1 181040Z 00000KT 04/01 A2999 RMK A01 T00360005  RH  080%=      5-min Rain = 0
KCO1 181041Z 00000KT 04/01 A2999 RMK A01 T00380007  RH  080%=      5-min Rain = 0
KCO1 181042Z 21001KT 04/01 A2999 RMK A01 T00390006  RH  079%=      5-min Rain = 0
KCO1 181043Z 21002KT 04/01 A2999 RMK A01 T00400005  RH  078%=      5-min Rain = 0
KCO1 181044Z 22002KT 04/01 A2999 RMK A01 T00400005  RH  078%=      5-min Rain = 0
KCO1 181045Z 22003KT 04/01 A2998 RMK A01 T00400005  RH  078%=      5-min Rain = 0
KCO1 181046Z 22003KT 04/01 A2998 RMK A01 T00410005  RH  078%=      5-min Rain = 0
KCO1 181047Z 23003KT 04/01 A2998 RMK A01 T00410005  RH  078%=      5-min Rain = 0
KCO1 181048Z 24003KT 04/01 A2998 RMK A01 T00400005  RH  078%=      5-min Rain = 0
KCO1 181049Z 24004KT 04/01 A2998 RMK A01 T00400005  RH  078%=      5-min Rain = 0
KCO1 181050Z 24004KT 04/01 A2998 RMK A01 T00400005  RH  078%=      5-min Rain = 0
KCO1 181051Z 24004KT 04/01 A2998 RMK A01 T00410005  RH  077%=      5-min Rain = 0
KCO1 181052Z 24004KT 04/01 A2998 RMK A01 T00420006  RH  077%=      5-min Rain = 0
KCO1 181053Z 25004KT 04/01 A2998 RMK A01 T00430006  RH  077%=      5-min Rain = 0
KCO1 181054Z 26003KT 04/01 A2998 RMK A01 T00440006  RH  077%=      5-min Rain = 0
KCO1 181055Z 25004KT 05/01 A2998 RMK A01 T00450007  RH  076%=      5-min Rain = 0
KCO1 181056Z 25003KT 05/01 A2998 RMK A01 T00470008  RH  076%=      5-min Rain = 0
KCO1 181057Z 25003KT 05/01 A2998 RMK A01 T00500009  RH  075%=      5-min Rain = 0
KCO1 181058Z 24003KT 05/01 A2998 RMK A01 T00530008  RH  073%=      5-min Rain = 0
KCO1 181059Z 24003KT 05/01 A2998 RMK A01 T00540007  RH  072%=      5-min Rain = 0
KCO1 181100Z 25003KT 05/01 A2997 RMK A01 T00520005  RH  071%=      5-min Rain = 0
KCO1 181101Z 23003KT 05/00 A2997 RMK A01 T00500004  RH  072%=      5-min Rain = 0
KCO1 181102Z 23003KT 05/00 A2997 RMK A01 T00480004  RH  073%=      5-min Rain = 0
KCO1 181103Z 23003KT 05/01 A2997 RMK A01 T00470005  RH  074%=      5-min Rain = 0
KCO1 181104Z 23003KT 05/01 A2997 RMK A01 T00470006  RH  074%=      5-min Rain = 0
KCO1 181105Z 23003KT 05/01 A2997 RMK A01 T00480006  RH  074%=      5-min Rain = 0
KCO1 181106Z 24003KT 05/01 A2997 RMK A01 T00480006  RH  074%=      5-min Rain = 0
KCO1 181107Z 24003KT 05/01 A2997 RMK A01 T00480006  RH  074%=      5-min Rain = 0
KCO1 181108Z 24004KT 05/01 A2997 RMK A01 T00480006  RH  074%=      5-min Rain = 0
KCO1 181109Z 24004KT 05/01 A2997 RMK A01 T00480006  RH  074%=      5-min Rain = 0
KCO1 181110Z 25004KT 05/01 A2997 RMK A01 T00480006  RH  074%=      5-min Rain = 0
KCO1 181111Z 25004KT 05/01 A2997 RMK A01 T00470006  RH  075%=      5-min Rain = 0
KCO1 181112Z 25004KT 05/01 A2997 RMK A01 T00470006  RH  075%=      5-min Rain = 0
KCO1 181113Z 25004KT 05/01 A2997 RMK A01 T00470006  RH  075%=      5-min Rain = 0
KCO1 181114Z 25003KT 05/01 A2997 RMK A01 T00460005  RH  075%=      5-min Rain = 0
KCO1 181115Z 24003KT 05/01 A2997 RMK A01 T00460005  RH  075%=      5-min Rain = 0
KCO1 181116Z 24003KT 05/01 A2997 RMK A01 T00450005  RH  075%=      5-min Rain = 0
KCO1 181117Z 24003KT 04/00 A2997 RMK A01 T00440004  RH  075%=      5-min Rain = 0
KCO1 181118Z 23004KT 04/01 A2996 RMK A01 T00430005  RH  076%=      5-min Rain = 0
KCO1 181119Z 23003KT 04/01 A2996 RMK A01 T00430006  RH  077%=      5-min Rain = 0
KCO1 181120Z 23003KT 05/01 A2996 RMK A01 T00450007  RH  077%=      5-min Rain = 0
KCO1 181121Z 23003KT 05/01 A2996 RMK A01 T00460008  RH  076%=      5-min Rain = 0
KCO1 181122Z 24003KT 05/01 A2996 RMK A01 T00470009  RH  076%=      5-min Rain = 0
KCO1 181123Z 24003KT 05/01 A2996 RMK A01 T00480008  RH  075%=      5-min Rain = 0
KCO1 181124Z 24003KT 05/01 A2996 RMK A01 T00480008  RH  075%=      5-min Rain = 0
KCO1 181125Z 23002KT 05/01 A2996 RMK A01 T00480007  RH  075%=      5-min Rain = 0
KCO1 181126Z 24002KT 05/01 A2996 RMK A01 T00490007  RH  074%=      5-min Rain = 0
KCO1 181127Z 25002KT 05/01 A2996 RMK A01 T00490007  RH  074%=      5-min Rain = 0
KCO1 181128Z 25002KT 05/01 A2996 RMK A01 T00500008  RH  074%=      5-min Rain = 0
KCO1 181129Z 24002KT 05/01 A2996 RMK A01 T00520009  RH  074%=      5-min Rain = 0
KCO1 181130Z 24002KT 05/01 A2996 RMK A01 T00530009  RH  073%=      5-min Rain = 0
KCO1 181131Z 23002KT 05/01 A2996 RMK A01 T00540008  RH  072%=      5-min Rain = 0
KCO1 181132Z 22002KT 05/01 A2996 RMK A01 T00540008  RH  072%=      5-min Rain = 0
KCO1 181133Z 20003KT 06/01 A2996 RMK A01 T00560008  RH  071%=      5-min Rain = 0
KCO1 181134Z 18003KT 06/01 A2996 RMK A01 T00560008  RH  071%=      5-min Rain = 0
KCO1 181135Z 18004KT 06/01 A2996 RMK A01 T00550006  RH  071%=      5-min Rain = 0
KCO1 181136Z 17004KT 05/00 A2996 RMK A01 T00510004  RH  072%=      5-min Rain = 0
KCO1 181137Z 17004KT 05/00 A2995 RMK A01 T00480004  RH  073%=      5-min Rain = 0
KCO1 181138Z 17004KT 05/00 A2995 RMK A01 T00450002  RH  074%=      5-min Rain = 0
KCO1 181139Z 18004KT 04/00 A2995 RMK A01 T00430003  RH  075%=      5-min Rain = 0
KCO1 181140Z 18005KT 04/00 A2995 RMK A01 T00410004  RH  077%=      5-min Rain = 0
KCO1 181141Z 18005KT 04/00 A2995 RMK A01 T00400004  RH  078%=      5-min Rain = 0
KCO1 181142Z 18005KT 04/01 A2995 RMK A01 T00400006  RH  078%=      5-min Rain = 0
KCO1 181143Z 19004KT 04/01 A2995 RMK A01 T00390006  RH  079%=      5-min Rain = 0
KCO1 181144Z 18004KT 04/01 A2995 RMK A01 T00400007  RH  079%=      5-min Rain = 0
KCO1 181145Z 18004KT 04/01 A2995 RMK A01 T00410008  RH  079%=      5-min Rain = 0
KCO1 181146Z 18004KT 04/01 A2995 RMK A01 T00400007  RH  079%=      5-min Rain = 0
KCO1 181147Z 18003KT 04/01 A2995 RMK A01 T00410007  RH  079%=      5-min Rain = 0
KCO1 181148Z 19003KT 04/01 A2995 RMK A01 T00410008  RH  079%=      5-min Rain = 0
KCO1 181149Z 19003KT 04/01 A2995 RMK A01 T00420009  RH  079%=      5-min Rain = 0
KCO1 181150Z 19003KT 04/01 A2995 RMK A01 T00440009  RH  078%=      5-min Rain = 0
KCO1 181151Z 18003KT 04/01 A2995 RMK A01 T00430007  RH  077%=      5-min Rain = 0
KCO1 181152Z 17003KT 04/01 A2995 RMK A01 T00420007  RH  078%=      5-min Rain = 0
KCO1 181153Z 17003KT 04/01 A2995 RMK A01 T00420007  RH  078%=      5-min Rain = 0
KCO1 181154Z 17003KT 04/01 A2995 RMK A01 T00410007  RH  078%=      5-min Rain = 0
KCO1 181155Z 17003KT 04/01 A2995 RMK A01 T00420008  RH  079%=      5-min Rain = 0
KCO1 181156Z 17003KT 04/01 A2995 RMK A01 T00430009  RH  079%=      5-min Rain = 0
KCO1 181157Z 17002KT 04/01 A2995 RMK A01 T00440009  RH  078%=      5-min Rain = 0
KCO1 181158Z 16002KT 05/01 A2995 RMK A01 T00460009  RH  077%=      5-min Rain = 0
KCO1 181159Z 16002KT 05/01 A2994 RMK A01 T00470010  RH  077%=      5-min Rain = 0
KCO1 181200Z 17002KT 05/01 A2994 RMK A01 T00490010  RH  076%=      5-min Rain = 0
KCO1 181201Z 17002KT 05/01 A2994 RMK A01 T00500010  RH  075%=      5-min Rain = 0
KCO1 181202Z 17003KT 05/01 A2994 RMK A01 T00520010  RH  074%=      5-min Rain = 0
KCO1 181203Z 16003KT 05/01 A2994 RMK A01 T00530009  RH  074%=      5-min Rain = 0
KCO1 181204Z 16003KT 05/01 A2994 RMK A01 T00530009  RH  073%=      5-min Rain = 0
KCO1 181205Z 17003KT 05/01 A2994 RMK A01 T00530008  RH  073%=      5-min Rain = 0
KCO1 181206Z 18003KT 05/01 A2994 RMK A01 T00520008  RH  073%=      5-min Rain = 0
KCO1 181207Z 19004KT 05/01 A2994 RMK A01 T00530009  RH  074%=      5-min Rain = 0
KCO1 181208Z 19004KT 06/01 A2994 RMK A01 T00550011  RH  073%=      5-min Rain = 0
KCO1 181209Z 19003KT 06/01 A2994 RMK A01 T00570011  RH  072%=      5-min Rain = 0
KCO1 181210Z 18002KT 06/01 A2994 RMK A01 T00580010  RH  072%=      5-min Rain = 0
KCO1 181211Z 19002KT 06/01 A2994 RMK A01 T00580010  RH  071%=      5-min Rain = 0
KCO1 181212Z 20001KT 06/01 A2994 RMK A01 T00570009  RH  071%=      5-min Rain = 0
KCO1 181213Z 21001KT 06/01 A2994 RMK A01 T00560008  RH  071%=      5-min Rain = 0
KCO1 181214Z 25001KT 06/01 A2994 RMK A01 T00550007  RH  071%=      5-min Rain = 0
KCO1 181215Z 25001KT 05/01 A2994 RMK A01 T00530007  RH  072%=      5-min Rain = 0
KCO1 181216Z 25001KT 05/01 A2994 RMK A01 T00510006  RH  072%=      5-min Rain = 0
KCO1 181217Z 00000KT 05/01 A2994 RMK A01 T00490006  RH  073%=      5-min Rain = 0
KCO1 181218Z 33002KT 05/01 A2994 RMK A01 T00480006  RH  074%=      5-min Rain = 0
KCO1 181219Z 33003KT 05/01 A2994 RMK A01 T00480007  RH  075%=      5-min Rain = 0
KCO1 181220Z 33004KT 05/01 A2994 RMK A01 T00480007  RH  075%=      5-min Rain = 0
KCO1 181221Z 32003KT 05/01 A2994 RMK A01 T00470006  RH  075%=      5-min Rain = 0
KCO1 181222Z 31002KT 05/01 A2994 RMK A01 T00460005  RH  075%=      5-min Rain = 0
KCO1 181223Z 29004KT 04/01 A2994 RMK A01 T00440005  RH  075%=      5-min Rain = 0
KCO1 181224Z 29003KT 04/00 A2994 RMK A01 T00430004  RH  076%=      5-min Rain = 0
KCO1 181225Z 29003KT 04/00 A2994 RMK A01 T00410003  RH  077%=      5-min Rain = 0
KCO1 181226Z 25003KT 04/01 A2994 RMK A01 T00410005  RH  078%=      5-min Rain = 0
KCO1 181227Z 25005KT 04/01 A2994 RMK A01 T00410008  RH  079%=      5-min Rain = 0
KCO1 181228Z 24006KT 05/01 A2994 RMK A01 T00450013  RH  080%=      5-min Rain = 0
KCO1 181229Z 24005KT 05/02 A2994 RMK A01 T00520019  RH  079%=      5-min Rain = 0
KCO1 181230Z 23007KT 06/02 A2994 RMK A01 T00590021  RH  077%=      5-min Rain = 0
KCO1 181231Z 24006KT 07/02 A2994 RMK A01 T00660024  RH  075%=      5-min Rain = 0
KCO1 181232Z 25004KT 07/02 A2994 RMK A01 T00710024  RH  072%=      5-min Rain = 0
KCO1 181233Z 25005KT 07/02 A2994 RMK A01 T00710020  RH  070%=      5-min Rain = 0
KCO1 181234Z 26005KT 07/02 A2994 RMK A01 T00700018  RH  069%=      5-min Rain = 0
KCO1 181235Z 25005KT 07/02 A2994 RMK A01 T00690016  RH  069%=      5-min Rain = 0
KCO1 181236Z 26004KT 07/02 A2994 RMK A01 T00680015  RH  069%=      5-min Rain = 0
KCO1 181237Z 26004KT 07/02 A2994 RMK A01 T00670015  RH  070%=      5-min Rain = 0
KCO1 181238Z 25003KT 07/02 A2994 RMK A01 T00660015  RH  070%=      5-min Rain = 0
KCO1 181239Z 26003KT 07/02 A2994 RMK A01 T00650016  RH  071%=      5-min Rain = 0
KCO1 181240Z 25004KT 07/02 A2994 RMK A01 T00660016  RH  071%=      5-min Rain = 0
KCO1 181241Z 24005KT 07/02 A2994 RMK A01 T00650015  RH  071%=      5-min Rain = 0
KCO1 181242Z 23005KT 06/02 A2994 RMK A01 T00640016  RH  071%=      5-min Rain = 0
KCO1 181243Z 23005KT 06/02 A2994 RMK A01 T00640018  RH  072%=      5-min Rain = 0
KCO1 181244Z 23006KT 07/02 A2994 RMK A01 T00660020  RH  072%=      5-min Rain = 0
KCO1 181245Z 23006KT 07/02 A2994 RMK A01 T00680021  RH  072%=      5-min Rain = 0
KCO1 181246Z 23006KT 07/02 A2994 RMK A01 T00690022  RH  072%=      5-min Rain = 0
KCO1 181247Z 23006KT 07/02 A2994 RMK A01 T00700022  RH  071%=      5-min Rain = 0
KCO1 181248Z 23006KT 07/02 A2994 RMK A01 T00710022  RH  071%=      5-min Rain = 0
KCO1 181249Z 23007KT 07/02 A2994 RMK A01 T00710022  RH  071%=      5-min Rain = 0
KCO1 181250Z 22007KT 07/02 A2994 RMK A01 T00720023  RH  071%=      5-min Rain = 0
KCO1 181251Z 22007KT 07/02 A2994 RMK A01 T00720023  RH  071%=      5-min Rain = 0
KCO1 181252Z 22007KT 07/02 A2994 RMK A01 T00730024  RH  071%=      5-min Rain = 0
KCO1 181253Z 22007KT 07/02 A2994 RMK A01 T00730024  RH  071%=      5-min Rain = 0
KCO1 181254Z 22007KT 07/02 A2994 RMK A01 T00740024  RH  071%=      5-min Rain = 0
KCO1 181255Z 22007KT 07/02 A2994 RMK A01 T00730024  RH  071%=      5-min Rain = 0
KCO1 181256Z 23007KT 07/02 A2994 RMK A01 T00730024  RH  071%=      5-min Rain = 0
KCO1 181257Z 23006KT 07/02 A2994 RMK A01 T00730024  RH  071%=      5-min Rain = 0
KCO1 181258Z 24005KT 07/02 A2994 RMK A01 T00720024  RH  071%=      5-min Rain = 0
KCO1 181259Z 26004KT 07/02 A2994 RMK A01 T00730024  RH  071%=      5-min Rain = 0
KCO1 181300Z 32005KT 07/03 A2995 RMK A01 T00730025  RH  071%=      5-min Rain = 0
KCO1 181301Z 36005KT 07/02 A2994 RMK A01 T00710020  RH  070%=      5-min Rain = 0
KCO1 181302Z 35005KT 07/01 A2994 RMK A01 T00650014  RH  070%=      5-min Rain = 0
KCO1 181303Z 34004KT 06/01 A2994 RMK A01 T00600012  RH  071%=      5-min Rain = 0
KCO1 181304Z 33004KT 06/01 A2994 RMK A01 T00570012  RH  073%=      5-min Rain = 0
KCO1 181305Z 33005KT 06/01 A2994 RMK A01 T00560014  RH  074%=      5-min Rain = 0
KCO1 181306Z 32005KT 06/02 A2994 RMK A01 T00560015  RH  075%=      5-min Rain = 0
KCO1 181307Z 31005KT 06/02 A2994 RMK A01 T00580017  RH  075%=      5-min Rain = 0
KCO1 181308Z 30005KT 06/02 A2994 RMK A01 T00600019  RH  075%=      5-min Rain = 0
KCO1 181309Z 29005KT 06/02 A2994 RMK A01 T00600019  RH  075%=      5-min Rain = 0
KCO1 181310Z 27004KT 06/02 A2994 RMK A01 T00610019  RH  075%=      5-min Rain = 0
KCO1 181311Z 25005KT 06/02 A2994 RMK A01 T00610020  RH  075%=      5-min Rain = 0
KCO1 181312Z 24005KT 06/02 A2994 RMK A01 T00610021  RH  075%=      5-min Rain = 0
KCO1 181313Z 24005KT 06/02 A2994 RMK A01 T00630022  RH  075%=      5-min Rain = 0
KCO1 181314Z 24006KT 06/02 A2994 RMK A01 T00640023  RH  075%=      5-min Rain = 0
KCO1 181315Z 23006KT 07/02 A2994 RMK A01 T00660023  RH  074%=      5-min Rain = 0
KCO1 181316Z 23006KT 07/02 A2994 RMK A01 T00660023  RH  074%=      5-min Rain = 0
KCO1 181317Z 23006KT 07/02 A2994 RMK A01 T00660023  RH  074%=      5-min Rain = 0
KCO1 181318Z 23006KT 07/02 A2994 RMK A01 T00660023  RH  074%=      5-min Rain = 0
KCO1 181319Z 23006KT 07/03 A2994 RMK A01 T00670025  RH  074%=      5-min Rain = 0
KCO1 181320Z 23006KT 07/03 A2994 RMK A01 T00670025  RH  074%=      5-min Rain = 0
KCO1 181321Z 23006KT 07/03 A2994 RMK A01 T00680025  RH  074%=      5-min Rain = 0
KCO1 181322Z 23006KT 07/02 A2994 RMK A01 T00680024  RH  074%=      5-min Rain = 0
KCO1 181323Z 23006KT 07/03 A2994 RMK A01 T00680025  RH  074%=      5-min Rain = 0
KCO1 181324Z 23006KT 07/03 A2994 RMK A01 T00680026  RH  074%=      5-min Rain = 0
KCO1 181325Z 24006KT 07/03 A2994 RMK A01 T00680025  RH  074%=      5-min Rain = 0
KCO1 181326Z 24006KT 07/03 A2994 RMK A01 T00680026  RH  074%=      5-min Rain = 0
KCO1 181327Z 24006KT 07/03 A2994 RMK A01 T00690026  RH  074%=      5-min Rain = 0
KCO1 181328Z 24006KT 07/03 A2994 RMK A01 T00690026  RH  074%=      5-min Rain = 0
KCO1 181329Z 24006KT 07/03 A2994 RMK A01 T00700026  RH  074%=      5-min Rain = 0
KCO1 181330Z 24006KT 07/03 A2995 RMK A01 T00700027  RH  074%=      5-min Rain = 0
KCO1 181331Z 24007KT 07/03 A2995 RMK A01 T00710027  RH  074%=      5-min Rain = 0
KCO1 181332Z 24006KT 07/03 A2995 RMK A01 T00720028  RH  074%=      5-min Rain = 0
KCO1 181333Z 24006KT 07/03 A2995 RMK A01 T00740029  RH  073%=      5-min Rain = 0
KCO1 181334Z 24007KT 07/03 A2995 RMK A01 T00740029  RH  073%=      5-min Rain = 0
KCO1 181335Z 24006KT 08/03 A2995 RMK A01 T00750029  RH  073%=      5-min Rain = 0
KCO1 181336Z 25006KT 08/03 A2995 RMK A01 T00760030  RH  073%=      5-min Rain = 0
KCO1 181337Z 24006KT 08/03 A2995 RMK A01 T00760030  RH  072%=      5-min Rain = 0
KCO1 181338Z 25006KT 08/03 A2995 RMK A01 T00760030  RH  072%=      5-min Rain = 0
KCO1 181339Z 24007KT 08/03 A2995 RMK A01 T00760030  RH  073%=      5-min Rain = 0
KCO1 181340Z 25006KT 08/03 A2995 RMK A01 T00760030  RH  073%=      5-min Rain = 0
KCO1 181341Z 24007KT 08/03 A2995 RMK A01 T00760031  RH  073%=      5-min Rain = 0
KCO1 181342Z 24006KT 08/03 A2995 RMK A01 T00760031  RH  073%=      5-min Rain = 0
KCO1 181343Z 23007KT 08/03 A2995 RMK A01 T00750031  RH  073%=      5-min Rain = 0
KCO1 181344Z 23006KT 08/03 A2995 RMK A01 T00760031  RH  074%=      5-min Rain = 0
KCO1 181345Z 23006KT 08/03 A2995 RMK A01 T00750031  RH  074%=      5-min Rain = 0
KCO1 181346Z 23006KT 08/03 A2995 RMK A01 T00760031  RH  073%=      5-min Rain = 0
KCO1 181347Z 23005KT 08/03 A2995 RMK A01 T00770032  RH  073%=      5-min Rain = 0
KCO1 181348Z 23006KT 08/03 A2995 RMK A01 T00780032  RH  072%=      5-min Rain = 0
KCO1 181349Z 23007KT 08/03 A2995 RMK A01 T00800032  RH  072%=      5-min Rain = 0
KCO1 181350Z 24008KT 08/03 A2995 RMK A01 T00820033  RH  071%=      5-min Rain = 0
KCO1 181351Z 23007KT 08/03 A2995 RMK A01 T00840033  RH  070%=      5-min Rain = 0
KCO1 181352Z 24007KT 09/03 A2995 RMK A01 T00850033  RH  070%=      5-min Rain = 0
KCO1 181353Z 25005KT 09/03 A2996 RMK A01 T00860033  RH  070%=      5-min Rain = 0
KCO1 181354Z 25006KT 09/03 A2996 RMK A01 T00860033  RH  069%=      5-min Rain = 0
KCO1 181355Z 23007KT 09/03 A2996 RMK A01 T00860033  RH  069%=      5-min Rain = 0
KCO1 181356Z 22009KT 09/03 A2995 RMK A01 T00880034  RH  069%=      5-min Rain = 0
KCO1 181357Z 23008KT 09/04 A2995 RMK A01 T00910035  RH  068%=      5-min Rain = 0
KCO1 181358Z 24006KT 09/04 A2996 RMK A01 T00940035  RH  067%=      5-min Rain = 0
KCO1 181359Z 23007KT 10/04 A2996 RMK A01 T00950035  RH  066%=      5-min Rain = 0
KCO1 181400Z 23009KT 10/03 A2996 RMK A01 T00950034  RH  066%=      5-min Rain = 0
KCO1 181401Z 22010KT 10/04 A2995 RMK A01 T00970035  RH  065%=      5-min Rain = 0
KCO1 181402Z 23010KT 10/03 A2995 RMK A01 T00980034  RH  064%=      5-min Rain = 0
KCO1 181403Z 23010KT 10/03 A2996 RMK A01 T00990034  RH  064%=      5-min Rain = 0
KCO1 181404Z 22010KT 10/03 A2996 RMK A01 T01000034  RH  064%=      5-min Rain = 0
KCO1 181405Z 22011KT 10/03 A2996 RMK A01 T00990033  RH  064%=      5-min Rain = 0
KCO1 181406Z 23010KT 10/03 A2996 RMK A01 T00980033  RH  064%=      5-min Rain = 0
KCO1 181407Z 23011KT 10/03 A2996 RMK A01 T00980033  RH  064%=      5-min Rain = 0
KCO1 181408Z 23010KT 10/03 A2995 RMK A01 T00970032  RH  064%=      5-min Rain = 0
KCO1 181409Z 22009KT 10/03 A2995 RMK A01 T00970032  RH  064%=      5-min Rain = 0
KCO1 181410Z 23010KT 10/03 A2995 RMK A01 T00970032  RH  064%=      5-min Rain = 0
KCO1 181411Z 23010KT 10/03 A2995 RMK A01 T00970032  RH  064%=      5-min Rain = 0
KCO1 181412Z 23010KT 10/03 A2995 RMK A01 T00960032  RH  064%=      5-min Rain = 0
KCO1 181413Z 23009KT 10/03 A2995 RMK A01 T00960031  RH  064%=      5-min Rain = 0
KCO1 181414Z 23009KT 10/03 A2995 RMK A01 T00950031  RH  064%=      5-min Rain = 0
KCO1 181415Z 23009KT 10/03 A2995 RMK A01 T00960031  RH  064%=      5-min Rain = 0
KCO1 181416Z 22009KT 10/03 A2995 RMK A01 T00960031  RH  064%=      5-min Rain = 0
KCO1 181417Z 23009KT 10/03 A2995 RMK A01 T00960031  RH  064%=      5-min Rain = 0
KCO1 181418Z 23008KT 10/03 A2995 RMK A01 T00960031  RH  064%=      5-min Rain = 0
KCO1 181419Z 23008KT 10/03 A2995 RMK A01 T00960031  RH  064%=      5-min Rain = 0
KCO1 181420Z 22008KT 10/03 A2995 RMK A01 T00970031  RH  063%=      5-min Rain = 0
KCO1 181421Z 22009KT 10/03 A2995 RMK A01 T00960031  RH  064%=      5-min Rain = 0
KCO1 181422Z 22009KT 10/03 A2994 RMK A01 T00950030  RH  064%=      5-min Rain = 0
KCO1 181423Z 22009KT 09/03 A2994 RMK A01 T00940030  RH  064%=      5-min Rain = 0
KCO1 181424Z 22009KT 09/03 A2994 RMK A01 T00930030  RH  065%=      5-min Rain = 0
KCO1 181425Z 23009KT 09/03 A2994 RMK A01 T00920030  RH  065%=      5-min Rain = 0
KCO1 181426Z 23009KT 09/03 A2994 RMK A01 T00910030  RH  065%=      5-min Rain = 0
KCO1 181427Z 23009KT 09/03 A2994 RMK A01 T00920030  RH  065%=      5-min Rain = 0
KCO1 181428Z 23009KT 09/03 A2994 RMK A01 T00920030  RH  065%=      5-min Rain = 0
KCO1 181429Z 22009KT 09/03 A2994 RMK A01 T00930030  RH  065%=      5-min Rain = 0
KCO1 181430Z 23009KT 09/03 A2994 RMK A01 T00930030  RH  065%=      5-min Rain = 0
KCO1 181431Z 22009KT 09/03 A2994 RMK A01 T00930030  RH  065%=      5-min Rain = 0
KCO1 181432Z 22009KT 09/03 A2994 RMK A01 T00930030  RH  065%=      5-min Rain = 0
KCO1 181433Z 23008KT 09/03 A2994 RMK A01 T00930030  RH  065%=      5-min Rain = 0
KCO1 181434Z 23009KT 09/03 A2994 RMK A01 T00930030  RH  065%=      5-min Rain = 0
KCO1 181435Z 23009KT 09/03 A2994 RMK A01 T00940031  RH  065%=      5-min Rain = 0
KCO1 181436Z 23008KT 10/03 A2994 RMK A01 T00950031  RH  064%=      5-min Rain = 0
KCO1 181437Z 22009KT 10/03 A2994 RMK A01 T00960031  RH  064%=      5-min Rain = 0
KCO1 181438Z 22009KT 10/03 A2994 RMK A01 T00970032  RH  064%=      5-min Rain = 0
KCO1 181439Z 22008KT 10/03 A2994 RMK A01 T00980031  RH  063%=      5-min Rain = 0
KCO1 181440Z 22009KT 10/03 A2994 RMK A01 T00980032  RH  063%=      5-min Rain = 0
KCO1 181441Z 23008KT 10/03 A2994 RMK A01 T00980032  RH  063%=      5-min Rain = 0
KCO1 181442Z 23009KT 10/03 A2994 RMK A01 T00980032  RH  063%=      5-min Rain = 0
KCO1 181443Z 23007KT 10/03 A2994 RMK A01 T01000033  RH  063%=      5-min Rain = 0
KCO1 181444Z 22007KT 10/03 A2994 RMK A01 T01020033  RH  062%=      5-min Rain = 0
KCO1 181445Z 22008KT 10/03 A2994 RMK A01 T01030033  RH  062%=      5-min Rain = 0
KCO1 181446Z 22007KT 10/03 A2994 RMK A01 T01030034  RH  062%=      5-min Rain = 0
KCO1 181447Z 22006KT 10/03 A2994 RMK A01 T01030034  RH  062%=      5-min Rain = 0
KCO1 181448Z 22007KT 10/03 A2994 RMK A01 T01040034  RH  062%=      5-min Rain = 0
KCO1 181449Z 23006KT 11/03 A2995 RMK A01 T01050034  RH  062%=      5-min Rain = 0
KCO1 181450Z 23007KT 11/03 A2995 RMK A01 T01050034  RH  061%=      5-min Rain = 0
KCO1 181451Z 23008KT 11/03 A2995 RMK A01 T01060034  RH  061%=      5-min Rain = 0
KCO1 181452Z 23008KT 11/03 A2995 RMK A01 T01070034  RH  061%=      5-min Rain = 0
KCO1 181453Z 24007KT 11/03 A2995 RMK A01 T01080034  RH  060%=      5-min Rain = 0
KCO1 181454Z 24007KT 11/03 A2995 RMK A01 T01080034  RH  060%=      5-min Rain = 0
KCO1 181455Z 24007KT 11/03 A2995 RMK A01 T01100034  RH  060%=      5-min Rain = 0
KCO1 181456Z 24005KT 11/04 A2995 RMK A01 T01110035  RH  059%=      5-min Rain = 0
KCO1 181457Z 24007KT 11/04 A2996 RMK A01 T01130036  RH  059%=      5-min Rain = 0
KCO1 181458Z 24008KT 12/04 A2995 RMK A01 T01150036  RH  058%=      5-min Rain = 0
KCO1 181459Z 24007KT 12/04 A2995 RMK A01 T01160035  RH  057%=      5-min Rain = 0
KCO1 181500Z 24008KT 12/04 A2995 RMK A01 T01170035  RH  057%=      5-min Rain = 0
KCO1 181501Z 23008KT 12/04 A2995 RMK A01 T01180035  RH  056%=      5-min Rain = 0
KCO1 181502Z 24008KT 12/03 A2995 RMK A01 T01200034  RH  056%=      5-min Rain = 0
KCO1 181503Z 23009KT 12/04 A2995 RMK A01 T01210035  RH  056%=      5-min Rain = 0
KCO1 181504Z 22009KT 12/04 A2995 RMK A01 T01220036  RH  055%=      5-min Rain = 0
KCO1 181505Z 23007KT 12/03 A2995 RMK A01 T01240034  RH  054%=      5-min Rain = 0
KCO1 181506Z 22009KT 13/04 A2995 RMK A01 T01260035  RH  054%=      5-min Rain = 0
KCO1 181507Z 23010KT 13/04 A2995 RMK A01 T01270035  RH  054%=      5-min Rain = 0
KCO1 181508Z 23010KT 13/03 A2995 RMK A01 T01270034  RH  053%=      5-min Rain = 0
KCO1 181509Z 23010KT 13/03 A2995 RMK A01 T01270034  RH  053%=      5-min Rain = 0
KCO1 181510Z 22008KT 13/04 A2995 RMK A01 T01270035  RH  053%=      5-min Rain = 0
KCO1 181511Z 22009KT 13/04 A2995 RMK A01 T01270035  RH  053%=      5-min Rain = 0
KCO1 181512Z 22009KT 13/04 A2995 RMK A01 T01270035  RH  053%=      5-min Rain = 0
KCO1 181513Z 23008KT 13/04 A2995 RMK A01 T01280035  RH  053%=      5-min Rain = 0
KCO1 181514Z 23010KT 13/04 A2995 RMK A01 T01290035  RH  053%=      5-min Rain = 0
KCO1 181515Z 23008KT 13/04 A2996 RMK A01 T01300035  RH  052%=      5-min Rain = 0
KCO1 181516Z 24007KT 13/04 A2996 RMK A01 T01310036  RH  052%=      5-min Rain = 0
KCO1 181517Z 23008KT 13/04 A2996 RMK A01 T01320036  RH  052%=      5-min Rain = 0
KCO1 181518Z 24007KT 13/04 A2996 RMK A01 T01340037  RH  052%=      5-min Rain = 0
KCO1 181519Z 24006KT 14/04 A2996 RMK A01 T01360037  RH  051%=      5-min Rain = 0
KCO1 181520Z 23006KT 14/04 A2996 RMK A01 T01380037  RH  051%=      5-min Rain = 0
KCO1 181521Z 24008KT 14/04 A2996 RMK A01 T01390038  RH  051%=      5-min Rain = 0
KCO1 181522Z 25009KT 14/04 A2996 RMK A01 T01400036  RH  049%=      5-min Rain = 0
KCO1 181523Z 24009KT 14/04 A2996 RMK A01 T01420035  RH  049%=      5-min Rain = 0
KCO1 181524Z 24010KT 14/04 A2996 RMK A01 T01430035  RH  048%=      5-min Rain = 0
KCO1 181525Z 24006KT 14/04 A2996 RMK A01 T01430035  RH  048%=      5-min Rain = 0
KCO1 181526Z 24007KT 15/04 A2996 RMK A01 T01450037  RH  049%=      5-min Rain = 0
KCO1 181527Z 24008KT 15/04 A2996 RMK A01 T01450037  RH  048%=      5-min Rain = 0
KCO1 181528Z 24008KT 15/04 A2996 RMK A01 T01460036  RH  047%=      5-min Rain = 0
KCO1 181529Z 24009KT 15/04 A2996 RMK A01 T01470035  RH  047%=      5-min Rain = 0
KCO1 181530Z 24010KT 15/03 A2996 RMK A01 T01490034  RH  046%=      5-min Rain = 0
KCO1 181531Z 24010KT 15/03 A2996 RMK A01 T01500033  RH  045%=      5-min Rain = 0
KCO1 181532Z 24009KT 15/03 A2996 RMK A01 T01510034  RH  045%=      5-min Rain = 0
KCO1 181533Z 24010KT 15/03 A2996 RMK A01 T01530034  RH  045%=      5-min Rain = 0
KCO1 181534Z 24007KT 15/03 A2996 RMK A01 T01540034  RH  045%=      5-min Rain = 0
KCO1 181535Z 23006KT 16/04 A2996 RMK A01 T01550037  RH  045%=      5-min Rain = 0
KCO1 181536Z 23007KT 16/04 A2996 RMK A01 T01560039  RH  045%=      5-min Rain = 0
KCO1 181537Z 23007KT 16/04 A2996 RMK A01 T01560038  RH  045%=      5-min Rain = 0
KCO1 181538Z 24007KT 16/04 A2996 RMK A01 T01560037  RH  045%=      5-min Rain = 0
KCO1 181539Z 23007KT 16/04 A2996 RMK A01 T01560038  RH  045%=      5-min Rain = 0
KCO1 181540Z 24007KT 16/04 A2996 RMK A01 T01560038  RH  045%=      5-min Rain = 0
KCO1 181541Z 24008KT 16/04 A2996 RMK A01 T01580038  RH  045%=      5-min Rain = 0
KCO1 181542Z 24006KT 16/04 A2996 RMK A01 T01590036  RH  044%=      5-min Rain = 0
KCO1 181543Z 23007KT 16/04 A2996 RMK A01 T01610037  RH  044%=      5-min Rain = 0
KCO1 181544Z 23006KT 16/04 A2996 RMK A01 T01620038  RH  043%=      5-min Rain = 0
KCO1 181545Z 23005KT 16/04 A2996 RMK A01 T01630039  RH  044%=      5-min Rain = 0
KCO1 181546Z 23005KT 16/04 A2996 RMK A01 T01640039  RH  043%=      5-min Rain = 0
KCO1 181547Z 24005KT 16/04 A2996 RMK A01 T01640039  RH  043%=      5-min Rain = 0
KCO1 181548Z 23005KT 17/04 A2996 RMK A01 T01650040  RH  043%=      5-min Rain = 0
KCO1 181549Z 23005KT 17/04 A2997 RMK A01 T01650040  RH  043%=      5-min Rain = 0
KCO1 181550Z 23005KT 17/04 A2997 RMK A01 T01660041  RH  043%=      5-min Rain = 0
KCO1 181551Z 23005KT 17/04 A2997 RMK A01 T01680043  RH  043%=      5-min Rain = 0
KCO1 181552Z 23005KT 17/04 A2997 RMK A01 T01690042  RH  043%=      5-min Rain = 0
KCO1 181553Z 26006KT 17/04 A2997 RMK A01 T01700042  RH  043%=      5-min Rain = 0
KCO1 181554Z 25009KT 17/04 A2997 RMK A01 T01720039  RH  041%=      5-min Rain = 0
KCO1 181555Z 25008KT 18/04 A2997 RMK A01 T01760035  RH  039%=      5-min Rain = 0
KCO1 181556Z 25009KT 18/03 A2996 RMK A01 T01790034  RH  038%=      5-min Rain = 0
KCO1 181557Z 25009KT 18/03 A2996 RMK A01 T01810034  RH  038%=      5-min Rain = 0
KCO1 181558Z 25010KT 18/03 A2996 RMK A01 T01830033  RH  037%=      5-min Rain = 0
KCO1 181559Z 26012KT 18/03 A2996 RMK A01 T01840032  RH  036%=      5-min Rain = 0
KCO1 181600Z 26010KT 18/03 A2996 RMK A01 T01840030  RH  036%=      5-min Rain = 0
KCO1 181601Z 26011KT 19/03 A2996 RMK A01 T01850032  RH  036%=      5-min Rain = 0
KCO1 181602Z 26012KT 19/03 A2997 RMK A01 T01850031  RH  036%=      5-min Rain = 0
KCO1 181603Z 26011KT 19/03 A2997 RMK A01 T01860029  RH  035%=      5-min Rain = 0
KCO1 181604Z 26010KT 19/03 A2997 RMK A01 T01860029  RH  035%=      5-min Rain = 0
KCO1 181605Z 27013G20KT 19/03 A2997 RMK A01 T01870030  RH  035%=      5-min Rain = 0
KCO1 181606Z 26014G20KT 19/03 A2997 RMK A01 T01870027  RH  034%=      5-min Rain = 0
KCO1 181607Z 26013KT 19/03 A2997 RMK A01 T01870028  RH  035%=      5-min Rain = 0
KCO1 181608Z 27011KT 19/03 A2997 RMK A01 T01870028  RH  035%=      5-min Rain = 0
KCO1 181609Z 26013KT 19/03 A2997 RMK A01 T01870028  RH  035%=      5-min Rain = 0
KCO1 181610Z 26012KT 19/03 A2997 RMK A01 T01880028  RH  035%=      5-min Rain = 0
KCO1 181611Z 26013KT 19/03 A2997 RMK A01 T01880028  RH  034%=      5-min Rain = 0
KCO1 181612Z 27014KT 19/03 A2997 RMK A01 T01880027  RH  034%=      5-min Rain = 0
KCO1 181613Z 26013KT 19/03 A2997 RMK A01 T01890027  RH  034%=      5-min Rain = 0
KCO1 181614Z 26011KT 19/03 A2997 RMK A01 T01890027  RH  034%=      5-min Rain = 0
KCO1 181615Z 27010KT 19/03 A2997 RMK A01 T01890028  RH  034%=      5-min Rain = 0
KCO1 181616Z 26012KT 19/03 A2997 RMK A01 T01900029  RH  034%=      5-min Rain = 0
KCO1 181617Z 26012KT 19/03 A2997 RMK A01 T01900028  RH  034%=      5-min Rain = 0
KCO1 181618Z 26011KT 19/03 A2997 RMK A01 T01910028  RH  034%=      5-min Rain = 0
KCO1 181619Z 27008KT 19/03 A2997 RMK A01 T01910029  RH  034%=      5-min Rain = 0
KCO1 181620Z 26012KT 19/03 A2997 RMK A01 T01920030  RH  034%=      5-min Rain = 0
KCO1 181621Z 27012KT 19/03 A2996 RMK A01 T01930029  RH  034%=      5-min Rain = 0
KCO1 181622Z 26011KT 19/03 A2996 RMK A01 T01930029  RH  034%=      5-min Rain = 0
KCO1 181623Z 27012KT 19/03 A2997 RMK A01 T01930028  RH  033%=      5-min Rain = 0
KCO1 181624Z 26013KT 19/03 A2997 RMK A01 T01930028  RH  033%=      5-min Rain = 0
KCO1 181625Z 26014KT 19/03 A2997 RMK A01 T01930027  RH  033%=      5-min Rain = 0
KCO1 181626Z 26012KT 19/03 A2997 RMK A01 T01930027  RH  033%=      5-min Rain = 0
KCO1 181627Z 26012KT 19/03 A2997 RMK A01 T01930027  RH  033%=      5-min Rain = 0
KCO1 181628Z 26013KT 19/03 A2997 RMK A01 T01930028  RH  033%=      5-min Rain = 0
KCO1 181629Z 26012KT 19/03 A2996 RMK A01 T01940028  RH  033%=      5-min Rain = 0
KCO1 181630Z 26012KT 20/03 A2996 RMK A01 T01950028  RH  033%=      5-min Rain = 0
KCO1 181631Z 26012KT 20/03 A2997 RMK A01 T01950028  RH  033%=      5-min Rain = 0
KCO1 181632Z 26013KT 20/03 A2997 RMK A01 T01960028  RH  033%=      5-min Rain = 0
KCO1 181633Z 26013KT 20/03 A2996 RMK A01 T01970028  RH  033%=      5-min Rain = 0
KCO1 181634Z 26014KT 20/03 A2996 RMK A01 T01970027  RH  032%=      5-min Rain = 0
KCO1 181635Z 26013KT 20/03 A2996 RMK A01 T01970027  RH  032%=      5-min Rain = 0
KCO1 181636Z 25015KT 20/03 A2996 RMK A01 T01980027  RH  032%=      5-min Rain = 0
KCO1 181637Z 25015KT 20/03 A2996 RMK A01 T01990027  RH  032%=      5-min Rain = 0
KCO1 181638Z 25016KT 20/03 A2995 RMK A01 T01990026  RH  032%=      5-min Rain = 0
KCO1 181639Z 24015KT 20/03 A2995 RMK A01 T01990026  RH  032%=      5-min Rain = 0
KCO1 181640Z 24014KT 20/03 A2995 RMK A01 T02000026  RH  032%=      5-min Rain = 0
KCO1 181641Z 24014KT 20/03 A2995 RMK A01 T02010027  RH  031%=      5-min Rain = 0
KCO1 181642Z 24016KT 20/03 A2995 RMK A01 T02020026  RH  031%=      5-min Rain = 0
KCO1 181643Z 24016KT 20/03 A2994 RMK A01 T02040025  RH  031%=      5-min Rain = 0
KCO1 181644Z 23013KT 20/03 A2994 RMK A01 T02040025  RH  031%=      5-min Rain = 0
KCO1 181645Z 23015KT 21/03 A2994 RMK A01 T02060026  RH  030%=      5-min Rain = 0
KCO1 181646Z 24016KT 21/03 A2994 RMK A01 T02070026  RH  030%=      5-min Rain = 0
KCO1 181647Z 24018KT 21/02 A2994 RMK A01 T02080023  RH  029%=      5-min Rain = 0
KCO1 181648Z 24015KT 21/02 A2994 RMK A01 T02080023  RH  029%=      5-min Rain = 0
KCO1 181649Z 24011G18KT 21/02 A2994 RMK A01 T02080024  RH  029%=      5-min Rain = 0
KCO1 181650Z 24012G17KT 21/03 A2994 RMK A01 T02100026  RH  030%=      5-min Rain = 0
KCO1 181651Z 24013G20KT 21/03 A2994 RMK A01 T02110025  RH  029%=      5-min Rain = 0
KCO1 181652Z 24013G20KT 21/02 A2994 RMK A01 T02120023  RH  029%=      5-min Rain = 0
KCO1 181653Z 24013KT 21/02 A2994 RMK A01 T02130024  RH  029%=      5-min Rain = 0
KCO1 181654Z 24014KT 22/02 A2994 RMK A01 T02150024  RH  028%=      5-min Rain = 0
KCO1 181655Z 24014KT 22/02 A2994 RMK A01 T02150024  RH  028%=      5-min Rain = 0
KCO1 181656Z 25017KT 22/02 A2994 RMK A01 T02150023  RH  028%=      5-min Rain = 0
KCO1 181657Z 25016G21KT 22/02 A2994 RMK A01 T02150021  RH  028%=      5-min Rain = 0
KCO1 181658Z 24018KT 21/02 A2994 RMK A01 T02140020  RH  028%=      5-min Rain = 0
KCO1 181659Z 25016KT 21/02 A2994 RMK A01 T02130020  RH  028%=      5-min Rain = 0
KCO1 181700Z 25017G22KT 21/02 A2994 RMK A01 T02130021  RH  028%=      5-min Rain = 0
KCO1 181701Z 25016KT 21/02 A2994 RMK A01 T02130021  RH  028%=      5-min Rain = 0
KCO1 181702Z 25013KT 21/02 A2994 RMK A01 T02130022  RH  028%=      5-min Rain = 0
KCO1 181703Z 24014KT 21/02 A2994 RMK A01 T02130023  RH  028%=      5-min Rain = 0
KCO1 181704Z 25015G20KT 21/02 A2994 RMK A01 T02140022  RH  028%=      5-min Rain = 0
KCO1 181705Z 24016G21KT 22/02 A2994 RMK A01 T02150022  RH  028%=      5-min Rain = 0
KCO1 181706Z 25012G17KT 22/02 A2994 RMK A01 T02150022  RH  028%=      5-min Rain = 0
KCO1 181707Z 26015KT 22/02 A2994 RMK A01 T02150024  RH  028%=      5-min Rain = 0
KCO1 181708Z 25015KT 21/02 A2995 RMK A01 T02140023  RH  028%=      5-min Rain = 0
KCO1 181709Z 25015KT 22/02 A2995 RMK A01 T02150022  RH  028%=      5-min Rain = 0
KCO1 181710Z 25016KT 22/02 A2995 RMK A01 T02150022  RH  028%=      5-min Rain = 0
KCO1 181711Z 25017KT 22/02 A2995 RMK A01 T02150021  RH  028%=      5-min Rain = 0
KCO1 181712Z 25015G20KT 21/02 A2995 RMK A01 T02140022  RH  028%=      5-min Rain = 0
KCO1 181713Z 26018G23KT 22/02 A2995 RMK A01 T02150024  RH  028%=      5-min Rain = 0
KCO1 181714Z 25016G23KT 22/02 A2995 RMK A01 T02150023  RH  028%=      5-min Rain = 0
KCO1 181715Z 25014KT 22/03 A2995 RMK A01 T02150025  RH  028%=      5-min Rain = 0
KCO1 181716Z 25013KT 22/03 A2995 RMK A01 T02160026  RH  029%=      5-min Rain = 0
KCO1 181717Z 26018KT 22/03 A2995 RMK A01 T02180025  RH  028%=      5-min Rain = 0
KCO1 181718Z 26016KT 22/03 A2995 RMK A01 T02180026  RH  028%=      5-min Rain = 0
KCO1 181719Z 25015KT 22/03 A2995 RMK A01 T02170025  RH  028%=      5-min Rain = 0
KCO1 181720Z 25016KT 22/03 A2995 RMK A01 T02180025  RH  028%=      5-min Rain = 0
KCO1 181721Z 26016G21KT 22/03 A2995 RMK A01 T02180025  RH  028%=      5-min Rain = 0
KCO1 181722Z 26014KT 22/03 A2995 RMK A01 T02180027  RH  028%=      5-min Rain = 0
KCO1 181723Z 26016KT 22/03 A2995 RMK A01 T02200026  RH  028%=      5-min Rain = 0
KCO1 181724Z 26016KT 22/03 A2995 RMK A01 T02190025  RH  028%=      5-min Rain = 0
KCO1 181725Z 26020G25KT 22/02 A2995 RMK A01 T02200024  RH  027%=      5-min Rain = 0
KCO1 181726Z 26021G27KT 22/02 A2995 RMK A01 T02190021  RH  027%=      5-min Rain = 0
KCO1 181727Z 26019KT 22/02 A2995 RMK A01 T02180019  RH  027%=      5-min Rain = 0
KCO1 181728Z 25018KT 22/02 A2995 RMK A01 T02180021  RH  027%=      5-min Rain = 0
KCO1 181729Z 26018G23KT 22/02 A2995 RMK A01 T02190020  RH  027%=      5-min Rain = 0
KCO1 181730Z 26017KT 22/02 A2995 RMK A01 T02190021  RH  027%=      5-min Rain = 0
KCO1 181731Z 26017KT 22/02 A2995 RMK A01 T02190022  RH  027%=      5-min Rain = 0
KCO1 181732Z 26018KT 22/02 A2995 RMK A01 T02200021  RH  027%=      5-min Rain = 0
KCO1 181733Z 27022KT 22/02 A2995 RMK A01 T02200020  RH  027%=      5-min Rain = 0
KCO1 181734Z 27020KT 22/02 A2995 RMK A01 T02190019  RH  027%=      5-min Rain = 0
KCO1 181735Z 26019G24KT 22/02 A2995 RMK A01 T02180019  RH  027%=      5-min Rain = 0
KCO1 181736Z 25018KT 22/02 A2995 RMK A01 T02190019  RH  027%=      5-min Rain = 0
KCO1 181737Z 26018KT 22/02 A2995 RMK A01 T02190020  RH  027%=      5-min Rain = 0
KCO1 181738Z 27018KT 22/02 A2995 RMK A01 T02190022  RH  027%=      5-min Rain = 0
KCO1 181739Z 26018KT 22/02 A2995 RMK A01 T02190022  RH  027%=      5-min Rain = 0
KCO1 181740Z 26015KT 22/02 A2995 RMK A01 T02200024  RH  027%=      5-min Rain = 0
KCO1 181741Z 27014KT 22/03 A2994 RMK A01 T02220026  RH  028%=      5-min Rain = 0
KCO1 181742Z 28015G21KT 22/03 A2994 RMK A01 T02240026  RH  027%=      5-min Rain = 0
KCO1 181743Z 28020G25KT 23/02 A2994 RMK A01 T02260024  RH  026%=      5-min Rain = 0
KCO1 181744Z 28017KT 23/02 A2994 RMK A01 T02260023  RH  026%=      5-min Rain = 0
KCO1 181745Z 28018KT 23/02 A2994 RMK A01 T02260023  RH  026%=      5-min Rain = 0
KCO1 181746Z 27014KT 23/02 A2994 RMK A01 T02270024  RH  026%=      5-min Rain = 0
KCO1 181747Z 27014KT 23/03 A2994 RMK A01 T02280026  RH  027%=      5-min Rain = 0
KCO1 181748Z 27014KT 23/03 A2994 RMK A01 T02290025  RH  026%=      5-min Rain = 0
KCO1 181749Z 26014KT 23/03 A2994 RMK A01 T02280026  RH  027%=      5-min Rain = 0
KCO1 181750Z 26015KT 23/03 A2994 RMK A01 T02270025  RH  027%=      5-min Rain = 0
KCO1 181751Z 26013KT 23/03 A2994 RMK A01 T02250026  RH  027%=      5-min Rain = 0
KCO1 181752Z 25014G19KT 22/03 A2994 RMK A01 T02240025  RH  027%=      5-min Rain = 0
KCO1 181753Z 27016KT 22/02 A2994 RMK A01 T02230024  RH  027%=      5-min Rain = 0
KCO1 181754Z 27018KT 22/02 A2994 RMK A01 T02230019  RH  026%=      5-min Rain = 0
KCO1 181755Z 27019KT 22/01 A2993 RMK A01 T02230014  RH  025%=      5-min Rain = 0
KCO1 181756Z 27016KT 22/01 A2994 RMK A01 T02220014  RH  025%=      5-min Rain = 0
KCO1 181757Z 27018G23KT 22/02 A2993 RMK A01 T02220016  RH  026%=      5-min Rain = 0
KCO1 181758Z 28022KT 22/01 A2993 RMK A01 T02240013  RH  025%=      5-min Rain = 0
KCO1 181759Z 27016KT 22/01 A2993 RMK A01 T02230012  RH  025%=      5-min Rain = 0
KCO1 181800Z 27019KT 22/01 A2993 RMK A01 T02240014  RH  025%=      5-min Rain = 0
KCO1 181801Z 28018KT 23/02 A2993 RMK A01 T02250015  RH  025%=      5-min Rain = 0
KCO1 181802Z 27020G26KT 23/02 A2993 RMK A01 T02260015  RH  025%=      5-min Rain = 0
KCO1 181803Z 27020G25KT 23/01 A2993 RMK A01 T02260014  RH  025%=      5-min Rain = 0
KCO1 181804Z 28022KT 23/01 A2993 RMK A01 T02250011  RH  024%=      5-min Rain = 0
KCO1 181805Z 27020G25KT 22/01 A2993 RMK A01 T02230010  RH  024%=      5-min Rain = 0
KCO1 181806Z 27018G23KT 22/01 A2993 RMK A01 T02220010  RH  025%=      5-min Rain = 0
KCO1 181807Z 26018G23KT 22/01 A2993 RMK A01 T02220010  RH  025%=      5-min Rain = 0
KCO1 181808Z 27018G23KT 22/01 A2993 RMK A01 T02220009  RH  024%=      5-min Rain = 0
KCO1 181809Z 27021G26KT 22/01 A2992 RMK A01 T02220010  RH  024%=      5-min Rain = 0
KCO1 181810Z 26018KT 22/01 A2992 RMK A01 T02210007  RH  024%=      5-min Rain = 0
KCO1 181811Z 26017G25KT 22/01 A2992 RMK A01 T02190007  RH  024%=      5-min Rain = 0
KCO1 181812Z 27019G27KT 22/01 A2992 RMK A01 T02190009  RH  025%=      5-min Rain = 0
KCO1 181813Z 27022G27KT 22/01 A2992 RMK A01 T02220011  RH  025%=      5-min Rain = 0
KCO1 181814Z 27023KT 22/01 A2992 RMK A01 T02230010  RH  024%=      5-min Rain = 0
KCO1 181815Z 27025KT 22/01 A2992 RMK A01 T02220009  RH  024%=      5-min Rain = 0
KCO1 181816Z 26024KT 22/01 A2992 RMK A01 T02220009  RH  024%=      5-min Rain = 0
KCO1 181817Z 26022G27KT 22/01 A2992 RMK A01 T02210007  RH  024%=      5-min Rain = 0
KCO1 181818Z 27021KT 22/01 A2992 RMK A01 T02200006  RH  024%=      5-min Rain = 0
KCO1 181819Z 26017G23KT 22/01 A2992 RMK A01 T02200008  RH  025%=      5-min Rain = 0
KCO1 181820Z 27016G21KT 22/01 A2992 RMK A01 T02200009  RH  025%=      5-min Rain = 0
KCO1 181821Z 27013KT 22/01 A2992 RMK A01 T02230014  RH  025%=      5-min Rain = 0
KCO1 181822Z 26015G20KT 23/02 A2991 RMK A01 T02250015  RH  025%=      5-min Rain = 0
KCO1 181823Z 27017KT 23/01 A2991 RMK A01 T02260014  RH  025%=      5-min Rain = 0
KCO1 181824Z 27018KT 23/01 A2991 RMK A01 T02260012  RH  024%=      5-min Rain = 0
KCO1 181825Z 27015KT 23/01 A2991 RMK A01 T02250014  RH  025%=      5-min Rain = 0
KCO1 181826Z 27016KT 23/01 A2991 RMK A01 T02250014  RH  025%=      5-min Rain = 0
KCO1 181827Z 28018KT 23/02 A2991 RMK A01 T02250015  RH  025%=      5-min Rain = 0
KCO1 181828Z 27016KT 22/01 A2991 RMK A01 T02230014  RH  025%=      5-min Rain = 0
KCO1 181829Z 27020KT 22/02 A2991 RMK A01 T02230015  RH  025%=      5-min Rain = 0
KCO1 181830Z 27017KT 22/01 A299 RMK A01 T02230014  RH  025%=      5-min Rain = 0
KCO1 181831Z 27017KT 22/02 A299 RMK A01 T02230015  RH  025%=      5-min Rain = 0
KCO1 181832Z 27015KT 22/01 A299 RMK A01 T02220013  RH  025%=      5-min Rain = 0
KCO1 181833Z 28015KT 22/02 A299 RMK A01 T02230015  RH  025%=      5-min Rain = 0
KCO1 181834Z 28016G22KT 23/02 A299 RMK A01 T02250016  RH  025%=      5-min Rain = 0
KCO1 181835Z 28016KT 23/02 A299 RMK A01 T02260015  RH  025%=      5-min Rain = 0
KCO1 181836Z 27016G21KT 23/02 A299 RMK A01 T02260016  RH  025%=      5-min Rain = 0
KCO1 181837Z 28016KT 23/02 A299 RMK A01 T02270016  RH  025%=      5-min Rain = 0
KCO1 181838Z 28017KT 23/01 A299 RMK A01 T02270013  RH  024%=      5-min Rain = 0
KCO1 181839Z 29016KT 23/01 A299 RMK A01 T02270013  RH  024%=      5-min Rain = 0
KCO1 181840Z 29014KT 23/01 A299 RMK A01 T02260013  RH  025%=      5-min Rain = 0
KCO1 181841Z 27012KT 23/02 A299 RMK A01 T02260015  RH  025%=      5-min Rain = 0
KCO1 181842Z 28016G22KT 23/02 A299 RMK A01 T02290017  RH  025%=      5-min Rain = 0
KCO1 181843Z 27016KT 23/01 A2989 RMK A01 T02300013  RH  024%=      5-min Rain = 0
KCO1 181844Z 28014G19KT 23/01 A2989 RMK A01 T02270013  RH  024%=      5-min Rain = 0
KCO1 181845Z 29017KT 23/01 A2989 RMK A01 T02270013  RH  024%=      5-min Rain = 0
KCO1 181846Z 28015KT 23/01 A2989 RMK A01 T02250012  RH  024%=      5-min Rain = 0
KCO1 181847Z 27012KT 22/01 A2989 RMK A01 T02240014  RH  025%=      5-min Rain = 0
KCO1 181848Z 28011KT 23/02 A2989 RMK A01 T02260018  RH  025%=      5-min Rain = 0
KCO1 181849Z 28014KT 23/02 A2989 RMK A01 T02300016  RH  024%=      5-min Rain = 0
KCO1 181850Z 28016G21KT 23/01 A2989 RMK A01 T02310014  RH  024%=      5-min Rain = 0
KCO1 181851Z 28018G23KT 23/01 A2988 RMK A01 T02300012  RH  024%=      5-min Rain = 0
KCO1 181852Z 28016KT 23/01 A2988 RMK A01 T02290012  RH  024%=      5-min Rain = 0
KCO1 181853Z 29016KT 23/01 A2988 RMK A01 T02290011  RH  024%=      5-min Rain = 0
KCO1 181854Z 28016KT 23/01 A2988 RMK A01 T02300012  RH  024%=      5-min Rain = 0
KCO1 181855Z 28013G18KT 23/01 A2988 RMK A01 T02300013  RH  024%=      5-min Rain = 0
KCO1 181856Z 27017KT 23/01 A2988 RMK A01 T02320014  RH  024%=      5-min Rain = 0
KCO1 181857Z 27018KT 23/01 A2988 RMK A01 T02320011  RH  023%=      5-min Rain = 0
KCO1 181858Z 28020G25KT 23/01 A2988 RMK A01 T02310011  RH  024%=      5-min Rain = 0
KCO1 181859Z 27016KT 23/01 A2988 RMK A01 T02290009  RH  023%=      5-min Rain = 0
KCO1 181900Z 28014KT 23/01 A2988 RMK A01 T02290011  RH  024%=      5-min Rain = 0
KCO1 181901Z 27016KT 23/01 A2987 RMK A01 T02320012  RH  023%=      5-min Rain = 0
KCO1 181902Z 27019KT 23/01 A2987 RMK A01 T02320011  RH  023%=      5-min Rain = 0
KCO1 181903Z 28019KT 23/01 A2987 RMK A01 T02320010  RH  023%=      5-min Rain = 0
KCO1 181904Z 28016G25KT 23/01 A2987 RMK A01 T02320011  RH  023%=      5-min Rain = 0
KCO1 181905Z 28022KT 23/01 A2987 RMK A01 T02340011  RH  023%=      5-min Rain = 0
KCO1 181906Z 29018G24KT 24/01 A2987 RMK A01 T02350010  RH  023%=      5-min Rain = 0
KCO1 181907Z 30020G26KT 24/01 A2987 RMK A01 T02350009  RH  023%=      5-min Rain = 0
KCO1 181908Z 29019KT 23/01 A2987 RMK A01 T02330008  RH  023%=      5-min Rain = 0
KCO1 181909Z 28018G23KT 23/01 A2987 RMK A01 T02320009  RH  023%=      5-min Rain = 0
KCO1 181910Z 28020KT 23/01 A2987 RMK A01 T02320009  RH  023%=      5-min Rain = 0
KCO1 181911Z 28017KT 23/01 A2987 RMK A01 T02290007  RH  023%=      5-min Rain = 0
KCO1 181912Z 27016G21KT 23/01 A2986 RMK A01 T02260006  RH  023%=      5-min Rain = 0
KCO1 181913Z 27021KT 22/00 A2986 RMK A01 T02240004  RH  023%=      5-min Rain = 0
KCO1 181914Z 26018KT 22/00 A2986 RMK A01 T02220004  RH  023%=      5-min Rain = 0
KCO1 181915Z 28017KT 22/00 A2986 RMK A01 T02210004  RH  024%=      5-min Rain = 0
KCO1 181916Z 28017KT 22/01 A2987 RMK A01 T02230007  RH  024%=      5-min Rain = 0
KCO1 181917Z 28018KT 23/01 A2986 RMK A01 T02250007  RH  024%=      5-min Rain = 0
KCO1 181918Z 27022KT 23/01 A2986 RMK A01 T02270007  RH  023%=      5-min Rain = 0
KCO1 181919Z 27019KT 23/01 A2986 RMK A01 T02270006  RH  023%=      5-min Rain = 0
KCO1 181920Z 26015G20KT 23/01 A2986 RMK A01 T02280007  RH  023%=      5-min Rain = 0
KCO1 181921Z 27015KT 23/01 A2986 RMK A01 T02290008  RH  023%=      5-min Rain = 0
KCO1 181922Z 27014KT 23/01 A2986 RMK A01 T02290008  RH  023%=      5-min Rain = 0
KCO1 181923Z 26013KT 23/01 A2986 RMK A01 T02290007  RH  023%=      5-min Rain = 0
KCO1 181924Z 25016G22KT 23/01 A2986 RMK A01 T02280008  RH  023%=      5-min Rain = 0
KCO1 181925Z 25018G26KT 23/01 A2986 RMK A01 T02270006  RH  023%=      5-min Rain = 0
KCO1 181926Z 26019KT 23/00 A2986 RMK A01 T02250004  RH  023%=      5-min Rain = 0
KCO1 181927Z 25017KT 22/00 A2986 RMK A01 T02230003  RH  023%=      5-min Rain = 0
KCO1 181928Z 25020G29KT 22/01 A2986 RMK A01 T02220005  RH  024%=      5-min Rain = 0
KCO1 181929Z 25018G26KT 22/00 A2986 RMK A01 T02220004  RH  024%=      5-min Rain = 0
KCO1 181930Z 25020G26KT 22/01 A2986 RMK A01 T02220006  RH  024%=      5-min Rain = 0
KCO1 181931Z 25023G31KT 22/01 A2986 RMK A01 T02220005  RH  024%=      5-min Rain = 0
KCO1 181932Z 26022KT 22/00 A2986 RMK A01 T02210004  RH  024%=      5-min Rain = 0
KCO1 181933Z 26022KT 22/00 A2986 RMK A01 T02200004  RH  024%=      5-min Rain = 0
KCO1 181934Z 27021KT 22/01 A2985 RMK A01 T02200005  RH  024%=      5-min Rain = 0
KCO1 181935Z 27022KT 22/01 A2985 RMK A01 T02210006  RH  024%=      5-min Rain = 0
KCO1 181936Z 27019KT 22/01 A2985 RMK A01 T02210006  RH  024%=      5-min Rain = 0
KCO1 181937Z 26019KT 22/01 A2985 RMK A01 T02210005  RH  024%=      5-min Rain = 0
KCO1 181938Z 26016G21KT 22/01 A2985 RMK A01 T02200005  RH  024%=      5-min Rain = 0
KCO1 181939Z 27019G24KT 22/01 A2985 RMK A01 T02200006  RH  024%=      5-min Rain = 0
KCO1 181940Z 27018G23KT 22/01 A2985 RMK A01 T02200006  RH  024%=      5-min Rain = 0
KCO1 181941Z 27019G24KT 22/01 A2985 RMK A01 T02200005  RH  024%=      5-min Rain = 0
KCO1 181942Z 27017G22KT 22/01 A2985 RMK A01 T02210006  RH  024%=      5-min Rain = 0
KCO1 181943Z 28016KT 22/01 A2985 RMK A01 T02200006  RH  024%=      5-min Rain = 0
KCO1 181944Z 28018G23KT 22/01 A2985 RMK A01 T02200005  RH  024%=      5-min Rain = 0
KCO1 181945Z 27017KT 22/01 A2985 RMK A01 T02190006  RH  024%=      5-min Rain = 0
KCO1 181946Z 27018KT 22/01 A2984 RMK A01 T02190007  RH  024%=      5-min Rain = 0
KCO1 181947Z 27018KT 22/01 A2984 RMK A01 T02190006  RH  024%=      5-min Rain = 0
KCO1 181948Z 27016G22KT 22/01 A2984 RMK A01 T02190006  RH  024%=      5-min Rain = 0
KCO1 181949Z 27017G22KT 22/01 A2984 RMK A01 T02200008  RH  024%=      5-min Rain = 0
KCO1 181950Z 27018KT 22/01 A2984 RMK A01 T02220008  RH  024%=      5-min Rain = 0
KCO1 181951Z 27020KT 22/01 A2984 RMK A01 T02220008  RH  024%=      5-min Rain = 0
KCO1 181952Z 27018KT 22/01 A2984 RMK A01 T02210005  RH  024%=      5-min Rain = 0
KCO1 181953Z 27017KT 22/01 A2984 RMK A01 T02200006  RH  024%=      5-min Rain = 0
KCO1 181954Z 27017KT 22/01 A2984 RMK A01 T02230009  RH  024%=      5-min Rain = 0
KCO1 181955Z 27019KT 23/01 A2983 RMK A01 T02260009  RH  024%=      5-min Rain = 0
KCO1 181956Z 27017KT 23/01 A2983 RMK A01 T02280008  RH  023%=      5-min Rain = 0
KCO1 181957Z 26019G25KT 23/01 A2983 RMK A01 T02280008  RH  023%=      5-min Rain = 0
KCO1 181958Z 27019G25KT 23/01 A2983 RMK A01 T02270007  RH  023%=      5-min Rain = 0
KCO1 181959Z 27020KT 23/01 A2983 RMK A01 T02270007  RH  023%=      5-min Rain = 0
KCO1 182000Z 27017G24KT 23/01 A2983 RMK A01 T02250006  RH  023%=      5-min Rain = 0
KCO1 182001Z 27023KT 22/00 A2983 RMK A01 T02240004  RH  023%=      5-min Rain = 0
KCO1 182002Z 27021G27KT 22/00 A2983 RMK A01 T02230003  RH  023%=      5-min Rain = 0
KCO1 182003Z 26021G26KT 22/00 A2982 RMK A01 T02220002  RH  023%=      5-min Rain = 0
KCO1 182004Z 27020G25KT 22/00 A2982 RMK A01 T02220002  RH  023%=      5-min Rain = 0
KCO1 182005Z 28021KT 22/00 A2982 RMK A01 T02230002  RH  023%=      5-min Rain = 0
KCO1 182006Z 27021G26KT 23/00 A2982 RMK A01 T02250002  RH  023%=      5-min Rain = 0
KCO1 182007Z 27019KT 23/00 A2982 RMK A01 T02270001  RH  022%=      5-min Rain = 0
KCO1 182008Z 27019G25KT 23/01 A2981 RMK A01 T02300005  RH  023%=      5-min Rain = 0
KCO1 182009Z 26020KT 23/01 A2981 RMK A01 T02310006  RH  022%=      5-min Rain = 0
KCO1 182010Z 26019G24KT 23/00 A2981 RMK A01 T02310003  RH  022%=      5-min Rain = 0
KCO1 182011Z 27022G27KT 23/00 A2981 RMK A01 T02290002  RH  022%=      5-min Rain = 0
KCO1 182012Z 27022G27KT 23/00 A298 RMK A01 T02290000  RH  022%=      5-min Rain = 0
KCO1 182013Z 28024KT 23/00 A298 RMK A01 T022900-0  RH  022%=      5-min Rain = 0
KCO1 182014Z 28020G27KT 23/M00 A298 RMK A01 T02291001  RH  022%=      5-min Rain = 0
KCO1 182015Z 28024G29KT 23/00 A298 RMK A01 T02290001  RH  022%=      5-min Rain = 0
KCO1 182016Z 28021KT 23/00 A298 RMK A01 T023000-0  RH  022%=      5-min Rain = 0
KCO1 182017Z 28023G28KT 23/00 A2979 RMK A01 T023000-0  RH  022%=      5-min Rain = 0
KCO1 182018Z 28018G24KT 23/00 A298 RMK A01 T02290001  RH  022%=      5-min Rain = 0
KCO1 182019Z 27022KT 23/00 A2979 RMK A01 T02310003  RH  022%=      5-min Rain = 0
KCO1 182020Z 27025G30KT 23/00 A2979 RMK A01 T02320001  RH  022%=      5-min Rain = 0
KCO1 182021Z 26022G28KT 23/00 A2979 RMK A01 T023100-0  RH  022%=      5-min Rain = 0
KCO1 182022Z 27024KT 23/00 A2979 RMK A01 T02300000  RH  022%=      5-min Rain = 0
KCO1 182023Z 27022KT 23/00 A2979 RMK A01 T02310000  RH  022%=      5-min Rain = 0
KCO1 182024Z 27021KT 23/00 A2979 RMK A01 T02300000  RH  022%=      5-min Rain = 0
KCO1 182025Z 27019KT 23/M00 A2978 RMK A01 T02271002  RH  022%=      5-min Rain = 0
KCO1 182026Z 28021KT 23/M00 A2978 RMK A01 T02261002  RH  022%=      5-min Rain = 0
KCO1 182027Z 27019G24KT 23/M00 A2978 RMK A01 T02261001  RH  022%=      5-min Rain = 0
KCO1 182028Z 27024KT 23/00 A2978 RMK A01 T022700-0  RH  022%=      5-min Rain = 0
KCO1 182029Z 27023KT 23/M00 A2978 RMK A01 T02281001  RH  022%=      5-min Rain = 0
KCO1 182030Z 27020KT 23/M00 A2978 RMK A01 T02281001  RH  022%=      5-min Rain = 0
KCO1 182031Z 27020KT 23/00 A2978 RMK A01 T02280000  RH  022%=      5-min Rain = 0
KCO1 182032Z 28022KT 23/00 A2978 RMK A01 T022900-0  RH  022%=      5-min Rain = 0
KCO1 182033Z 27023G28KT 23/00 A2978 RMK A01 T022900-0  RH  022%=      5-min Rain = 0
KCO1 182034Z 27023KT 23/00 A2978 RMK A01 T022900-0  RH  022%=      5-min Rain = 0
KCO1 182035Z 27021G28KT 23/00 A2978 RMK A01 T02310001  RH  022%=      5-min Rain = 0
KCO1 182036Z 28024G29KT 23/00 A2978 RMK A01 T02330001  RH  022%=      5-min Rain = 0
KCO1 182037Z 28024G29KT 23/00 A2978 RMK A01 T023400-0  RH  021%=      5-min Rain = 0
KCO1 182038Z 28023KT 23/M00 A2978 RMK A01 T02321002  RH  021%=      5-min Rain = 0
KCO1 182039Z 28022G30KT 23/M00 A2978 RMK A01 T02311002  RH  021%=      5-min Rain = 0
KCO1 182040Z 28017KT 23/00 A2978 RMK A01 T023000-0  RH  022%=      5-min Rain = 0
KCO1 182041Z 28018G23KT 23/00 A2978 RMK A01 T02310000  RH  022%=      5-min Rain = 0
KCO1 182042Z 28018KT 23/00 A2978 RMK A01 T02330002  RH  022%=      5-min Rain = 0
KCO1 182043Z 28019G24KT 23/00 A2978 RMK A01 T02340001  RH  021%=      5-min Rain = 0
KCO1 182044Z 29021KT 23/00 A2978 RMK A01 T02340000  RH  021%=      5-min Rain = 0
KCO1 182045Z 28017G26KT 23/00 A2979 RMK A01 T02330000  RH  021%=      5-min Rain = 0
KCO1 182046Z 28021G26KT 23/00 A2979 RMK A01 T02340001  RH  021%=      5-min Rain = 0
KCO1 182047Z 28023KT 23/00 A2979 RMK A01 T023400-0  RH  021%=      5-min Rain = 0
KCO1 182048Z 28022G28KT 23/M00 A2979 RMK A01 T02331001  RH  021%=      5-min Rain = 0
KCO1 182049Z 28022KT 23/M00 A2979 RMK A01 T02331001  RH  021%=      5-min Rain = 0
KCO1 182050Z 28020KT 23/M00 A2979 RMK A01 T02321001  RH  021%=      5-min Rain = 0
KCO1 182051Z 27016G21KT 23/00 A2979 RMK A01 T02330001  RH  021%=      5-min Rain = 0
KCO1 182052Z 27018KT 24/00 A2979 RMK A01 T02360002  RH  021%=      5-min Rain = 0
KCO1 182053Z 28018KT 24/00 A2979 RMK A01 T02370001  RH  021%=      5-min Rain = 0
KCO1 182054Z 28018G23KT 24/00 A2979 RMK A01 T02370001  RH  021%=      5-min Rain = 0
KCO1 182055Z 28019KT 24/00 A2979 RMK A01 T02360001  RH  021%=      5-min Rain = 0
KCO1 182056Z 29019KT 24/00 A2979 RMK A01 T02360000  RH  021%=      5-min Rain = 0
KCO1 182057Z 28018KT 24/00 A2979 RMK A01 T02360001  RH  021%=      5-min Rain = 0
KCO1 182058Z 27021KT 24/00 A2979 RMK A01 T02370001  RH  021%=      5-min Rain = 0
KCO1 182059Z 27020KT 24/M00 A2979 RMK A01 T02371003  RH  021%=      5-min Rain = 0
KCO1 182100Z 26021KT 24/M00 A2979 RMK A01 T02361003  RH  021%=      5-min Rain = 0
KCO1 182101Z 26019KT 24/M00 A2979 RMK A01 T02351004  RH  021%=      5-min Rain = 0
KCO1 182102Z 26020KT 24/M00 A2979 RMK A01 T02351003  RH  021%=      5-min Rain = 0
KCO1 182103Z 26019G27KT 24/M00 A2979 RMK A01 T02361002  RH  021%=      5-min Rain = 0
KCO1 182104Z 28017G23KT 24/M00 A2979 RMK A01 T02371002  RH  021%=      5-min Rain = 0
KCO1 182105Z 28022KT 24/M00 A2978 RMK A01 T02381002  RH  020%=      5-min Rain = 0
KCO1 182106Z 27020KT 24/M00 A2978 RMK A01 T02381003  RH  020%=      5-min Rain = 0
KCO1 182107Z 27018KT 24/M00 A2978 RMK A01 T02371003  RH  020%=      5-min Rain = 0
KCO1 182108Z 27019KT 24/M00 A2978 RMK A01 T02381001  RH  021%=      5-min Rain = 0
KCO1 182109Z 27020KT 24/M00 A2978 RMK A01 T02391002  RH  020%=      5-min Rain = 0
KCO1 182110Z 27020KT 24/M00 A2978 RMK A01 T02391004  RH  020%=      5-min Rain = 0
KCO1 182111Z 26018G23KT 24/M00 A2978 RMK A01 T02381004  RH  020%=      5-min Rain = 0
KCO1 182112Z 27015G20KT 24/M00 A2978 RMK A01 T02371004  RH  020%=      5-min Rain = 0
KCO1 182113Z 28017KT 24/M00 A2978 RMK A01 T02391003  RH  020%=      5-min Rain = 0
KCO1 182114Z 28017KT 24/M00 A2978 RMK A01 T02401003  RH  020%=      5-min Rain = 0
KCO1 182115Z 29021KT 24/M00 A2978 RMK A01 T02401003  RH  020%=      5-min Rain = 0
KCO1 182116Z 29019KT 24/M00 A2978 RMK A01 T02391004  RH  020%=      5-min Rain = 0
KCO1 182117Z 29018G23KT 24/M00 A2978 RMK A01 T02381004  RH  020%=      5-min Rain = 0
KCO1 182118Z 29021G26KT 24/M00 A2978 RMK A01 T02391003  RH  020%=      5-min Rain = 0
KCO1 182119Z 29017G22KT 24/M00 A2978 RMK A01 T02381004  RH  020%=      5-min Rain = 0
KCO1 182120Z 29017G22KT 24/M00 A2978 RMK A01 T02391002  RH  020%=      5-min Rain = 0
KCO1 182121Z 28017G23KT 24/M00 A2978 RMK A01 T02401003  RH  020%=      5-min Rain = 0
KCO1 182122Z 28021G27KT 24/M00 A2978 RMK A01 T02411003  RH  020%=      5-min Rain = 0
KCO1 182123Z 29021G27KT 24/M01 A2978 RMK A01 T02401005  RH  020%=      5-min Rain = 0
KCO1 182124Z 28025KT 24/M01 A2978 RMK A01 T02381005  RH  020%=      5-min Rain = 0
KCO1 182125Z 29023G29KT 24/M01 A2978 RMK A01 T02371005  RH  020%=      5-min Rain = 0
KCO1 182126Z 29022G29KT 24/M01 A2978 RMK A01 T02361005  RH  020%=      5-min Rain = 0
KCO1 182127Z 28021G26KT 24/M01 A2978 RMK A01 T02361005  RH  020%=      5-min Rain = 0
KCO1 182128Z 29020G25KT 24/M00 A2978 RMK A01 T02361004  RH  020%=      5-min Rain = 0
KCO1 182129Z 30018KT 24/M00 A2978 RMK A01 T02361004  RH  020%=      5-min Rain = 0
KCO1 182130Z 28019KT 24/M00 A2978 RMK A01 T02381002  RH  021%=      5-min Rain = 0
KCO1 182131Z 28024G30KT 24/M00 A2978 RMK A01 T02381003  RH  020%=      5-min Rain = 0
KCO1 182132Z 29021KT 24/M00 A2978 RMK A01 T02381003  RH  020%=      5-min Rain = 0
KCO1 182133Z 29023KT 24/M00 A2978 RMK A01 T02371003  RH  020%=      5-min Rain = 0
KCO1 182134Z 29023G28KT 24/M00 A2978 RMK A01 T02371002  RH  021%=      5-min Rain = 0
KCO1 182135Z 29021G28KT 24/M00 A2978 RMK A01 T02361003  RH  021%=      5-min Rain = 0
KCO1 182136Z 30020G27KT 24/M00 A2978 RMK A01 T02361001  RH  021%=      5-min Rain = 0
KCO1 182137Z 29021G28KT 24/M00 A2978 RMK A01 T02361002  RH  021%=      5-min Rain = 0
KCO1 182138Z 29023KT 24/M00 A2978 RMK A01 T02361002  RH  021%=      5-min Rain = 0
KCO1 182139Z 29022G27KT 24/M00 A2977 RMK A01 T02351002  RH  021%=      5-min Rain = 0
KCO1 182140Z 29025G30KT 23/M00 A2977 RMK A01 T02331003  RH  021%=      5-min Rain = 0
KCO1 182141Z 30024KT 23/M00 A2978 RMK A01 T02321003  RH  021%=      5-min Rain = 0
KCO1 182142Z 29023G28KT 23/M00 A2977 RMK A01 T02331003  RH  021%=      5-min Rain = 0
KCO1 182143Z 29021G26KT 23/M00 A2977 RMK A01 T02341002  RH  021%=      5-min Rain = 0
KCO1 182144Z 29017G29KT 24/00 A2977 RMK A01 T023600-0  RH  021%=      5-min Rain = 0
KCO1 182145Z 29026G34KT 24/M00 A2977 RMK A01 T02381002  RH  021%=      5-min Rain = 0
KCO1 182146Z 29022G29KT 24/M00 A2977 RMK A01 T02371003  RH  020%=      5-min Rain = 0
KCO1 182147Z 30025G31KT 24/M00 A2977 RMK A01 T02361003  RH  021%=      5-min Rain = 0
KCO1 182148Z 29024G29KT 23/M00 A2977 RMK A01 T02341004  RH  021%=      5-min Rain = 0
KCO1 182149Z 30025G30KT 23/M00 A2977 RMK A01 T02321004  RH  021%=      5-min Rain = 0
KCO1 182150Z 29023KT 23/M00 A2977 RMK A01 T02301004  RH  021%=      5-min Rain = 0
KCO1 182151Z 28022G27KT 23/M00 A2977 RMK A01 T02291004  RH  021%=      5-min Rain = 0
KCO1 182152Z 29023G33KT 23/M00 A2977 RMK A01 T02281003  RH  022%=      5-min Rain = 0
KCO1 182153Z 29026G35KT 23/M00 A2977 RMK A01 T02271004  RH  022%=      5-min Rain = 0
KCO1 182154Z 29024G31KT 23/M00 A2977 RMK A01 T02251004  RH  022%=      5-min Rain = 0
KCO1 182155Z 29016KT 23/M00 A2977 RMK A01 T02251003  RH  022%=      5-min Rain = 0
KCO1 182156Z 29016G23KT 23/M00 A2977 RMK A01 T02251002  RH  022%=      5-min Rain = 0
KCO1 182157Z 29023G28KT 23/M00 A2977 RMK A01 T02251002  RH  022%=      5-min Rain = 0
KCO1 182158Z 29025G32KT 22/M00 A2977 RMK A01 T02231004  RH  022%=      5-min Rain = 0
KCO1 182159Z 29023G28KT 22/M00 A2977 RMK A01 T02231003  RH  022%=      5-min Rain = 0
KCO1 182200Z 30022G27KT 23/M00 A2977 RMK A01 T02251003  RH  022%=      5-min Rain = 0
KCO1 182201Z 29022G28KT 23/M00 A2977 RMK A01 T02251004  RH  022%=      5-min Rain = 0
KCO1 182202Z 29024G31KT 22/M00 A2977 RMK A01 T02241004  RH  022%=      5-min Rain = 0
KCO1 182203Z 29022G27KT 22/M00 A2977 RMK A01 T02241004  RH  022%=      5-min Rain = 0
KCO1 182204Z 29022G30KT 22/M00 A2977 RMK A01 T02241004  RH  022%=      5-min Rain = 0
KCO1 182205Z 30025G33KT 22/M00 A2977 RMK A01 T02231003  RH  022%=      5-min Rain = 0
KCO1 182206Z 29028G36KT 22/M00 A2977 RMK A01 T02221004  RH  022%=      5-min Rain = 0
KCO1 182207Z 29026G31KT 22/M00 A2978 RMK A01 T02231004  RH  022%=      5-min Rain = 0
KCO1 182208Z 29025G31KT 22/M00 A2977 RMK A01 T02241003  RH  022%=      5-min Rain = 0
KCO1 182209Z 29025KT 23/M00 A2978 RMK A01 T02261003  RH  022%=      5-min Rain = 0
KCO1 182210Z 29025G34KT 23/M00 A2978 RMK A01 T02281003  RH  022%=      5-min Rain = 0
KCO1 182211Z 29025G30KT 23/M00 A2978 RMK A01 T02281004  RH  021%=      5-min Rain = 0
KCO1 182212Z 30024G34KT 23/M00 A2978 RMK A01 T02291003  RH  021%=      5-min Rain = 0
KCO1 182213Z 30030G36KT 23/M00 A2978 RMK A01 T02291004  RH  021%=      5-min Rain = 0
KCO1 182214Z 29028G33KT 23/M01 A2978 RMK A01 T02281005  RH  021%=      5-min Rain = 0
KCO1 182215Z 30024G31KT 23/M00 A2978 RMK A01 T02281004  RH  021%=      5-min Rain = 0
KCO1 182216Z 29023G28KT 23/M00 A2978 RMK A01 T02291003  RH  021%=      5-min Rain = 0
KCO1 182217Z 29022G29KT 23/M00 A2978 RMK A01 T02291003  RH  021%=      5-min Rain = 0
KCO1 182218Z 29024G29KT 23/M00 A2978 RMK A01 T02301003  RH  021%=      5-min Rain = 0
KCO1 182219Z 29026G32KT 23/M00 A2978 RMK A01 T02301003  RH  021%=      5-min Rain = 0
KCO1 182220Z 30027G32KT 23/M00 A2978 RMK A01 T02291004  RH  021%=      5-min Rain = 0
KCO1 182221Z 29024KT 23/M00 A2978 RMK A01 T02291004  RH  021%=      5-min Rain = 0
KCO1 182222Z 29023G28KT 23/M00 A2978 RMK A01 T02291003  RH  021%=      5-min Rain = 0
KCO1 182223Z 29024G31KT 23/M00 A2978 RMK A01 T02291003  RH  021%=      5-min Rain = 0
KCO1 182224Z 30020G30KT 23/M00 A2978 RMK A01 T02291002  RH  022%=      5-min Rain = 0
KCO1 182225Z 29026G31KT 23/M00 A2978 RMK A01 T02281001  RH  022%=      5-min Rain = 0
KCO1 182226Z 29022G28KT 22/00 A2979 RMK A01 T022400-0  RH  022%=      5-min Rain = 0
KCO1 182227Z 30024KT 22/00 A2978 RMK A01 T02220001  RH  023%=      5-min Rain = 0
KCO1 182228Z 30025KT 22/00 A2978 RMK A01 T02220001  RH  023%=      5-min Rain = 0
KCO1 182229Z 30021G28KT 22/00 A2978 RMK A01 T02230002  RH  023%=      5-min Rain = 0
KCO1 182230Z 30023G28KT 22/00 A2979 RMK A01 T02240003  RH  023%=      5-min Rain = 0
KCO1 182231Z 30025G33KT 22/00 A2978 RMK A01 T02240003  RH  023%=      5-min Rain = 0
KCO1 182232Z 30023G28KT 22/00 A2978 RMK A01 T02240002  RH  023%=      5-min Rain = 0
KCO1 182233Z 30024G31KT 22/00 A2979 RMK A01 T02240003  RH  023%=      5-min Rain = 0
KCO1 182234Z 30027KT 22/00 A2978 RMK A01 T02240002  RH  023%=      5-min Rain = 0
KCO1 182235Z 30023G29KT 22/00 A2979 RMK A01 T02240002  RH  023%=      5-min Rain = 0
KCO1 182236Z 30025G31KT 22/00 A2979 RMK A01 T02240001  RH  023%=      5-min Rain = 0
KCO1 182237Z 30026G35KT 22/M00 A2979 RMK A01 T02241001  RH  023%=      5-min Rain = 0
KCO1 182238Z 29026G31KT 22/M00 A2979 RMK A01 T02241001  RH  023%=      5-min Rain = 0
KCO1 182239Z 29026KT 22/M00 A2979 RMK A01 T02241001  RH  022%=      5-min Rain = 0
KCO1 182240Z 29024G30KT 22/M00 A2979 RMK A01 T02241001  RH  023%=      5-min Rain = 0
KCO1 182241Z 29030KT 22/M00 A2979 RMK A01 T02231002  RH  022%=      5-min Rain = 0
KCO1 182242Z 29029G35KT 22/M00 A2979 RMK A01 T02241002  RH  022%=      5-min Rain = 0
KCO1 182243Z 29026KT 22/M00 A2979 RMK A01 T02241002  RH  022%=      5-min Rain = 0
KCO1 182244Z 29022G29KT 22/M00 A2979 RMK A01 T02241002  RH  022%=      5-min Rain = 0
KCO1 182245Z 29025G32KT 22/M00 A2979 RMK A01 T02241001  RH  022%=      5-min Rain = 0
KCO1 182246Z 29022G27KT 22/M00 A2979 RMK A01 T02231001  RH  022%=      5-min Rain = 0
KCO1 182247Z 30024G30KT 22/00 A2979 RMK A01 T022300-0  RH  023%=      5-min Rain = 0
KCO1 182248Z 30024G31KT 22/00 A2979 RMK A01 T022200-0  RH  023%=      5-min Rain = 0
KCO1 182249Z 29024G30KT 22/00 A2979 RMK A01 T02210000  RH  023%=      5-min Rain = 0
KCO1 182250Z 29023G30KT 22/00 A2979 RMK A01 T02210001  RH  023%=      5-min Rain = 0
KCO1 182251Z 29024G30KT 22/00 A2979 RMK A01 T02210003  RH  024%=      5-min Rain = 0
KCO1 182252Z 30028G34KT 22/00 A2979 RMK A01 T02200003  RH  024%=      5-min Rain = 0
KCO1 182253Z 29025KT 22/00 A2979 RMK A01 T02200004  RH  024%=      5-min Rain = 0
KCO1 182254Z 29024G30KT 22/00 A298 RMK A01 T02190004  RH  024%=      5-min Rain = 0
KCO1 182255Z 29024G30KT 22/01 A298 RMK A01 T02190005  RH  024%=      5-min Rain = 0
KCO1 182256Z 29023G32KT 22/01 A298 RMK A01 T02190006  RH  024%=      5-min Rain = 0
KCO1 182257Z 29027G33KT 22/01 A298 RMK A01 T02190005  RH  024%=      5-min Rain = 0
KCO1 182258Z 29025G31KT 22/00 A2979 RMK A01 T02180004  RH  024%=      5-min Rain = 0
KCO1 182259Z 30025G30KT 22/00 A2979 RMK A01 T02170004  RH  024%=      5-min Rain = 0
KCO1 182300Z 30024G29KT 22/00 A2979 RMK A01 T02170004  RH  024%=      5-min Rain = 0
KCO1 182301Z 30021G28KT 22/00 A2979 RMK A01 T02170004  RH  024%=      5-min Rain = 0
KCO1 182302Z 30024G29KT 22/00 A298 RMK A01 T02170004  RH  024%=      5-min Rain = 0
KCO1 182303Z 29023G30KT 22/00 A298 RMK A01 T02170003  RH  024%=      5-min Rain = 0
KCO1 182304Z 29020G27KT 22/00 A298 RMK A01 T02170004  RH  024%=      5-min Rain = 0
KCO1 182305Z 29018KT 22/01 A298 RMK A01 T02170005  RH  024%=      5-min Rain = 0
KCO1 182306Z 29023G29KT 22/01 A298 RMK A01 T02170006  RH  025%=      5-min Rain = 0
KCO1 182307Z 30019G24KT 22/01 A298 RMK A01 T02160006  RH  025%=      5-min Rain = 0
KCO1 182308Z 30018G25KT 22/01 A298 RMK A01 T02160007  RH  025%=      5-min Rain = 0
KCO1 182309Z 29021G28KT 22/01 A298 RMK A01 T02150007  RH  025%=      5-min Rain = 0
KCO1 182310Z 30023G30KT 22/01 A298 RMK A01 T02150007  RH  025%=      5-min Rain = 0
KCO1 182311Z 30023G29KT 22/01 A298 RMK A01 T02150007  RH  025%=      5-min Rain = 0
KCO1 182312Z 30022KT 21/01 A298 RMK A01 T02140008  RH  025%=      5-min Rain = 0
KCO1 182313Z 29026KT 21/01 A298 RMK A01 T02140008  RH  026%=      5-min Rain = 0
KCO1 182314Z 30019G27KT 21/01 A298 RMK A01 T02140009  RH  026%=      5-min Rain = 0
KCO1 182315Z 29028G39KT 21/01 A298 RMK A01 T02140009  RH  026%=      5-min Rain = 0
KCO1 182316Z 30026G34KT 21/01 A298 RMK A01 T02130006  RH  025%=      5-min Rain = 0
KCO1 182317Z 30028G35KT 21/01 A2979 RMK A01 T02130006  RH  025%=      5-min Rain = 0
KCO1 182318Z 30022G27KT 21/01 A298 RMK A01 T02120005  RH  025%=      5-min Rain = 0
KCO1 182319Z 30021G27KT 21/01 A298 RMK A01 T02120006  RH  025%=      5-min Rain = 0
KCO1 182320Z 30022G30KT 21/01 A298 RMK A01 T02110006  RH  025%=      5-min Rain = 0
KCO1 182321Z 30022G31KT 21/01 A298 RMK A01 T02110006  RH  026%=      5-min Rain = 0
KCO1 182322Z 29027G34KT 21/01 A2979 RMK A01 T02100006  RH  026%=      5-min Rain = 0
KCO1 182323Z 30027G32KT 21/01 A2979 RMK A01 T02100007  RH  026%=      5-min Rain = 0
KCO1 182324Z 30026G31KT 21/01 A298 RMK A01 T02100008  RH  026%=      5-min Rain = 0
KCO1 182325Z 30025G30KT 21/01 A2979 RMK A01 T02090008  RH  026%=      5-min Rain = 0
KCO1 182326Z 30019KT 21/01 A298 RMK A01 T02080009  RH  027%=      5-min Rain = 0
KCO1 182327Z 30021KT 21/01 A298 RMK A01 T02080010  RH  027%=      5-min Rain = 0
KCO1 182328Z 30020G25KT 21/01 A298 RMK A01 T02080010  RH  027%=      5-min Rain = 0
KCO1 182329Z 30024KT 21/01 A298 RMK A01 T02080010  RH  027%=      5-min Rain = 0
KCO1 182330Z 30021G28KT 21/01 A298 RMK A01 T02080010  RH  027%=      5-min Rain = 0
KCO1 182331Z 29018G23KT 21/01 A298 RMK A01 T02070010  RH  027%=      5-min Rain = 0
KCO1 182332Z 29017G23KT 21/01 A298 RMK A01 T02070011  RH  027%=      5-min Rain = 0
KCO1 182333Z 30021G28KT 21/01 A298 RMK A01 T02060011  RH  027%=      5-min Rain = 0
KCO1 182334Z 30022G28KT 21/01 A298 RMK A01 T02060011  RH  027%=      5-min Rain = 0
KCO1 182335Z 30025KT 21/01 A298 RMK A01 T02060010  RH  027%=      5-min Rain = 0
KCO1 182336Z 30025KT 21/01 A298 RMK A01 T02060010  RH  027%=      5-min Rain = 0
KCO1 182337Z 30021KT 21/01 A298 RMK A01 T02060010  RH  027%=      5-min Rain = 0
KCO1 182338Z 29021G27KT 21/01 A298 RMK A01 T02060011  RH  027%=      5-min Rain = 0
KCO1 182339Z 30022G29KT 21/01 A298 RMK A01 T02050010  RH  027%=      5-min Rain = 0
KCO1 182340Z 29023G29KT 21/01 A298 RMK A01 T02050010  RH  027%=      5-min Rain = 0
KCO1 182341Z 30021KT 21/01 A298 RMK A01 T02050010  RH  027%=      5-min Rain = 0
KCO1 182342Z 30018KT 21/01 A298 RMK A01 T02050011  RH  027%=      5-min Rain = 0
KCO1 182343Z 30018KT 20/01 A298 RMK A01 T02040011  RH  028%=      5-min Rain = 0
KCO1 182344Z 29020G27KT 20/01 A298 RMK A01 T02040011  RH  028%=      5-min Rain = 0
KCO1 182345Z 30024G32KT 20/01 A298 RMK A01 T02040011  RH  028%=      5-min Rain = 0
KCO1 182346Z 30023G28KT 20/01 A298 RMK A01 T02040010  RH  027%=      5-min Rain = 0
KCO1 182347Z 30021KT 20/01 A298 RMK A01 T02040010  RH  027%=      5-min Rain = 0
KCO1 182348Z 30022G30KT 20/01 A298 RMK A01 T02040011  RH  027%=      5-min Rain = 0
KCO1 182349Z 30022G27KT 20/01 A298 RMK A01 T02040010  RH  027%=      5-min Rain = 0
KCO1 182350Z 31020G26KT 20/01 A2981 RMK A01 T02040011  RH  027%=      5-min Rain = 0
KCO1 182351Z 34018G24KT 20/01 A2981 RMK A01 T02040011  RH  028%=      5-min Rain = 0
KCO1 182352Z 34020G27KT 20/01 A2981 RMK A01 T02000010  RH  028%=      5-min Rain = 0
KCO1 182353Z 34019KT 19/01 A2982 RMK A01 T01910011  RH  030%=      5-min Rain = 0
KCO1 182354Z 33019G25KT 18/01 A2982 RMK A01 T01840011  RH  031%=      5-min Rain = 0
KCO1 182355Z 34017G22KT 18/01 A2982 RMK A01 T01790011  RH  032%=      5-min Rain = 0
KCO1 182356Z 34018KT 18/01 A2982 RMK A01 T01760012  RH  033%=      5-min Rain = 0
KCO1 182357Z 34020KT 17/01 A2982 RMK A01 T01740012  RH  034%=      5-min Rain = 0
KCO1 182358Z 34021G26KT 17/01 A2982 RMK A01 T01720012  RH  034%=      5-min Rain = 0
KCO1 182359Z 34028KT 17/01 A2983 RMK A01 T01700013  RH  035%=      5-min Rain = 0
KCO1 190000Z 34022KT 17/01 A2983 RMK A01 T01690013  RH  035%=      5-min Rain = 0
KCO1 190001Z 34020G26KT 17/01 A2983 RMK A01 T01670013  RH  035%=      5-min Rain = 0
KCO1 190002Z 34021G26KT 17/01 A2983 RMK A01 T01670014  RH  036%=      5-min Rain = 0
KCO1 190003Z 34024G33KT 17/01 A2983 RMK A01 T01660014  RH  036%=      5-min Rain = 0
KCO1 190004Z 34021KT 17/01 A2983 RMK A01 T01650014  RH  036%=      5-min Rain = 0
KCO1 190005Z 34023G28KT 17/01 A2983 RMK A01 T01650014  RH  036%=      5-min Rain = 0
KCO1 190006Z 34024G30KT 16/01 A2983 RMK A01 T01640013  RH  036%=      5-min Rain = 0
KCO1 190007Z 34023G28KT 16/01 A2983 RMK A01 T01640013  RH  036%=      5-min Rain = 0
KCO1 190008Z 34022KT 16/01 A2984 RMK A01 T01640013  RH  036%=      5-min Rain = 0
KCO1 190009Z 34022G27KT 16/01 A2984 RMK A01 T01630012  RH  036%=      5-min Rain = 0
KCO1 190010Z 33023G28KT 16/01 A2983 RMK A01 T01630012  RH  036%=      5-min Rain = 0
KCO1 190011Z 33022KT 16/01 A2984 RMK A01 T01630011  RH  036%=      5-min Rain = 0
KCO1 190012Z 34023KT 16/01 A2984 RMK A01 T01630011  RH  036%=      5-min Rain = 0
KCO1 190013Z 34022KT 16/01 A2984 RMK A01 T01620011  RH  036%=      5-min Rain = 0
KCO1 190014Z 34023G29KT 16/01 A2984 RMK A01 T01620011  RH  036%=      5-min Rain = 0
KCO1 190015Z 34021KT 16/01 A2984 RMK A01 T01620011  RH  036%=      5-min Rain = 0
KCO1 190016Z 34025KT 16/01 A2984 RMK A01 T01620010  RH  036%=      5-min Rain = 0
KCO1 190017Z 33021KT 16/01 A2984 RMK A01 T01620009  RH  035%=      5-min Rain = 0
KCO1 190018Z 34021G26KT 16/01 A2984 RMK A01 T01610008  RH  035%=      5-min Rain = 0
KCO1 190019Z 34023KT 16/01 A2984 RMK A01 T01610008  RH  035%=      5-min Rain = 0
KCO1 190020Z 34024G29KT 16/01 A2984 RMK A01 T01610007  RH  035%=      5-min Rain = 0
KCO1 190021Z 34025G30KT 16/01 A2984 RMK A01 T01600005  RH  035%=      5-min Rain = 0
KCO1 190022Z 34022KT 16/01 A2985 RMK A01 T01600005  RH  035%=      5-min Rain = 0
KCO1 190023Z 34022KT 16/01 A2985 RMK A01 T01600005  RH  035%=      5-min Rain = 0
KCO1 190024Z 34020KT 16/01 A2985 RMK A01 T01600005  RH  035%=      5-min Rain = 0
KCO1 190025Z 33018KT 16/01 A2985 RMK A01 T01600005  RH  035%=      5-min Rain = 0
KCO1 190026Z 33018G23KT 16/01 A2985 RMK A01 T01590005  RH  035%=      5-min Rain = 0
KCO1 190027Z 34018KT 16/01 A2985 RMK A01 T01580005  RH  035%=      5-min Rain = 0
KCO1 190028Z 33017KT 16/01 A2985 RMK A01 T01580005  RH  035%=      5-min Rain = 0
KCO1 190029Z 34015KT 16/01 A2985 RMK A01 T01580005  RH  035%=      5-min Rain = 0
KCO1 190030Z 34016KT 16/01 A2985 RMK A01 T01570005  RH  036%=      5-min Rain = 0
KCO1 190031Z 34015KT 16/01 A2985 RMK A01 T01570005  RH  036%=      5-min Rain = 0
KCO1 190032Z 34013G18KT 16/01 A2985 RMK A01 T01570005  RH  036%=      5-min Rain = 0
KCO1 190033Z 34014KT 16/01 A2986 RMK A01 T01560005  RH  036%=      5-min Rain = 0
KCO1 190034Z 34017KT 16/01 A2986 RMK A01 T01560005  RH  036%=      5-min Rain = 0
KCO1 190035Z 34015KT 16/01 A2986 RMK A01 T01560005  RH  036%=      5-min Rain = 0
KCO1 190036Z 33013KT 16/01 A2986 RMK A01 T01570005  RH  036%=      5-min Rain = 0
KCO1 190037Z 34012KT 16/01 A2986 RMK A01 T01570005  RH  036%=      5-min Rain = 0
KCO1 190038Z 33010KT 16/01 A2986 RMK A01 T01560005  RH  036%=      5-min Rain = 0
KCO1 190039Z 33012KT 16/01 A2986 RMK A01 T01560005  RH  036%=      5-min Rain = 0
KCO1 190040Z 34013KT 16/01 A2986 RMK A01 T01550005  RH  036%=      5-min Rain = 0
KCO1 190041Z 34012KT 16/00 A2986 RMK A01 T01550004  RH  036%=      5-min Rain = 0
KCO1 190042Z 34014KT 16/00 A2986 RMK A01 T01550004  RH  036%=      5-min Rain = 0
KCO1 190043Z 34013KT 15/00 A2986 RMK A01 T01540004  RH  036%=      5-min Rain = 0
KCO1 190044Z 33011G16KT 15/00 A2986 RMK A01 T01540004  RH  036%=      5-min Rain = 0
KCO1 190045Z 33010KT 15/00 A2986 RMK A01 T01540004  RH  036%=      5-min Rain = 0
KCO1 190046Z 33014KT 15/00 A2986 RMK A01 T01530004  RH  036%=      5-min Rain = 0
KCO1 190047Z 33011KT 15/00 A2986 RMK A01 T01520004  RH  036%=      5-min Rain = 0
KCO1 190048Z 33010KT 15/00 A2987 RMK A01 T01520004  RH  036%=      5-min Rain = 0
KCO1 190049Z 33011KT 15/00 A2987 RMK A01 T01520004  RH  036%=      5-min Rain = 0
KCO1 190050Z 33010KT 15/00 A2986 RMK A01 T01520004  RH  036%=      5-min Rain = 0
KCO1 190051Z 33012KT 15/00 A2986 RMK A01 T01520004  RH  037%=      5-min Rain = 0
KCO1 190052Z 33012KT 15/00 A2986 RMK A01 T01520004  RH  036%=      5-min Rain = 0
KCO1 190053Z 33014KT 15/00 A2986 RMK A01 T01520004  RH  036%=      5-min Rain = 0
KCO1 190054Z 33015KT 15/00 A2987 RMK A01 T01520004  RH  036%=      5-min Rain = 0
KCO1 190055Z 33013KT 15/00 A2987 RMK A01 T01520004  RH  036%=      5-min Rain = 0
KCO1 190056Z 33014KT 15/00 A2987 RMK A01 T01510003  RH  036%=      5-min Rain = 0
KCO1 190057Z 33014KT 15/00 A2987 RMK A01 T01510003  RH  036%=      5-min Rain = 0
KCO1 190058Z 33015KT 15/00 A2987 RMK A01 T01510003  RH  036%=      5-min Rain = 0
KCO1 190059Z 33014KT 15/00 A2987 RMK A01 T01520003  RH  036%=      5-min Rain = 0
KCO1 190100Z 33014KT 15/00 A2987 RMK A01 T01520003  RH  036%=      5-min Rain = 0
KCO1 190101Z 33015G20KT 15/00 A2987 RMK A01 T01510003  RH  036%=      5-min Rain = 0
KCO1 190102Z 33013KT 15/00 A2987 RMK A01 T01510003  RH  036%=      5-min Rain = 0
KCO1 190103Z 33014KT 15/00 A2987 RMK A01 T01510003  RH  036%=      5-min Rain = 0
KCO1 190104Z 33013KT 15/00 A2987 RMK A01 T01500003  RH  036%=      5-min Rain = 0
KCO1 190105Z 33012KT 15/00 A2987 RMK A01 T01500003  RH  036%=      5-min Rain = 0
KCO1 190106Z 33013KT 15/00 A2987 RMK A01 T01500002  RH  037%=      5-min Rain = 0
KCO1 190107Z 33012KT 15/00 A2987 RMK A01 T01490002  RH  037%=      5-min Rain = 0
KCO1 190108Z 33012KT 15/00 A2987 RMK A01 T01490002  RH  037%=      5-min Rain = 0
KCO1 190109Z 33012KT 15/00 A2988 RMK A01 T01490002  RH  037%=      5-min Rain = 0
KCO1 190110Z 33012KT 15/00 A2988 RMK A01 T01480002  RH  037%=      5-min Rain = 0
KCO1 190111Z 33012KT 15/00 A2988 RMK A01 T01480002  RH  037%=      5-min Rain = 0
KCO1 190112Z 33011KT 15/00 A2988 RMK A01 T01480002  RH  037%=      5-min Rain = 0
KCO1 190113Z 33012KT 15/00 A2988 RMK A01 T01480001  RH  037%=      5-min Rain = 0
KCO1 190114Z 33012KT 15/00 A2988 RMK A01 T01480001  RH  037%=      5-min Rain = 0
KCO1 190115Z 33013KT 15/00 A2988 RMK A01 T01480000  RH  036%=      5-min Rain = 0
KCO1 190116Z 33011KT 15/00 A2988 RMK A01 T01480001  RH  036%=      5-min Rain = 0
KCO1 190117Z 33011KT 15/00 A2988 RMK A01 T01480001  RH  036%=      5-min Rain = 0
KCO1 190118Z 33010KT 15/00 A2989 RMK A01 T01480001  RH  037%=      5-min Rain = 0
KCO1 190119Z 33010KT 15/00 A2989 RMK A01 T01470001  RH  037%=      5-min Rain = 0
KCO1 190120Z 33010KT 15/00 A2989 RMK A01 T01470001  RH  037%=      5-min Rain = 0
KCO1 190121Z 33011KT 15/00 A2989 RMK A01 T01460001  RH  037%=      5-min Rain = 0
KCO1 190122Z 33010KT 15/00 A2989 RMK A01 T01460001  RH  037%=      5-min Rain = 0
KCO1 190123Z 33010KT 15/00 A2989 RMK A01 T01460001  RH  037%=      5-min Rain = 0
KCO1 190124Z 33010KT 15/00 A2989 RMK A01 T01460000  RH  037%=      5-min Rain = 0
KCO1 190125Z 33010KT 15/00 A2989 RMK A01 T01470000  RH  037%=      5-min Rain = 0
KCO1 190126Z 33010KT 15/00 A2989 RMK A01 T014600-0  RH  037%=      5-min Rain = 0
KCO1 190127Z 32011KT 15/M00 A2989 RMK A01 T01461001  RH  037%=      5-min Rain = 0
KCO1 190128Z 33009KT 15/M00 A299 RMK A01 T01461001  RH  037%=      5-min Rain = 0
KCO1 190129Z 33009KT 15/00 A299 RMK A01 T014700-0  RH  037%=      5-min Rain = 0
KCO1 190130Z 33009KT 15/M00 A299 RMK A01 T01461001  RH  037%=      5-min Rain = 0
KCO1 190131Z 32008KT 15/M00 A299 RMK A01 T01461001  RH  037%=      5-min Rain = 0
KCO1 190132Z 32009KT 15/M00 A299 RMK A01 T01461002  RH  036%=      5-min Rain = 0
KCO1 190133Z 32009KT 15/M00 A299 RMK A01 T01461002  RH  036%=      5-min Rain = 0
KCO1 190134Z 32008KT 15/M00 A299 RMK A01 T01461002  RH  036%=      5-min Rain = 0
KCO1 190135Z 32008KT 15/M00 A299 RMK A01 T01461002  RH  036%=      5-min Rain = 0
KCO1 190136Z 33008KT 15/M00 A299 RMK A01 T01461003  RH  036%=      5-min Rain = 0
KCO1 190137Z 33010KT 15/M00 A299 RMK A01 T01461003  RH  036%=      5-min Rain = 0
KCO1 190138Z 33010KT 15/M00 A2991 RMK A01 T01461004  RH  036%=      5-min Rain = 0
KCO1 190139Z 33009KT 15/M01 A2991 RMK A01 T01461005  RH  035%=      5-min Rain = 0
KCO1 190140Z 33010KT 15/M01 A2991 RMK A01 T01461005  RH  035%=      5-min Rain = 0
KCO1 190141Z 33011KT 15/M01 A2991 RMK A01 T01461006  RH  035%=      5-min Rain = 0
KCO1 190142Z 33010KT 15/M01 A2991 RMK A01 T01471006  RH  035%=      5-min Rain = 0
KCO1 190143Z 33010KT 15/M01 A2991 RMK A01 T01471007  RH  035%=      5-min Rain = 0
KCO1 190144Z 33009KT 15/M01 A2991 RMK A01 T01471006  RH  035%=      5-min Rain = 0
KCO1 190145Z 33010KT 15/M01 A2991 RMK A01 T01471007  RH  035%=      5-min Rain = 0
KCO1 190146Z 33009G14KT 15/M01 A2991 RMK A01 T01471007  RH  035%=      5-min Rain = 0
KCO1 190147Z 33010KT 15/M01 A2991 RMK A01 T01471007  RH  035%=      5-min Rain = 0
KCO1 190148Z 33010KT 15/M01 A2992 RMK A01 T01471008  RH  035%=      5-min Rain = 0
KCO1 190149Z 33009KT 15/M01 A2992 RMK A01 T01471008  RH  035%=      5-min Rain = 0
KCO1 190150Z 33010KT 15/M01 A2992 RMK A01 T01461008  RH  035%=      5-min Rain = 0
KCO1 190151Z 33010KT 15/M01 A2992 RMK A01 T01471008  RH  034%=      5-min Rain = 0
KCO1 190152Z 33009KT 15/M01 A2992 RMK A01 T01471008  RH  034%=      5-min Rain = 0
KCO1 190153Z 33010KT 15/M01 A2992 RMK A01 T01471008  RH  034%=      5-min Rain = 0
KCO1 190154Z 33011KT 15/M01 A2992 RMK A01 T01471008  RH  035%=      5-min Rain = 0
KCO1 190155Z 33011KT 15/M01 A2992 RMK A01 T01471009  RH  034%=      5-min Rain = 0
KCO1 190156Z 32010KT 15/M01 A2992 RMK A01 T01471009  RH  034%=      5-min Rain = 0
KCO1 190157Z 33010KT 15/M01 A2992 RMK A01 T01471009  RH  034%=      5-min Rain = 0
KCO1 190158Z 33010KT 15/M01 A2992 RMK A01 T01471009  RH  034%=      5-min Rain = 0
KCO1 190159Z 33010KT 15/M01 A2992 RMK A01 T01471009  RH  034%=      5-min Rain = 0
KCO1 190200Z 32010KT 15/M01 A2992 RMK A01 T01471009  RH  034%=      5-min Rain = 0
KCO1 190201Z 32012KT 15/M01 A2992 RMK A01 T01481009  RH  034%=      5-min Rain = 0
KCO1 190202Z 32012KT 15/M01 A2993 RMK A01 T01481009  RH  034%=      5-min Rain = 0
KCO1 190203Z 32011KT 15/M01 A2993 RMK A01 T01481010  RH  034%=      5-min Rain = 0
KCO1 190204Z 32012KT 15/M01 A2993 RMK A01 T01491010  RH  034%=      5-min Rain = 0
KCO1 190205Z 32012KT 15/M01 A2993 RMK A01 T01491011  RH  033%=      5-min Rain = 0
KCO1 190206Z 32011KT 15/M01 A2993 RMK A01 T01491010  RH  033%=      5-min Rain = 0
KCO1 190207Z 32011KT 15/M01 A2993 RMK A01 T01491010  RH  034%=      5-min Rain = 0
KCO1 190208Z 32010KT 15/M01 A2993 RMK A01 T01491010  RH  034%=      5-min Rain = 0
KCO1 190209Z 32012KT 15/M01 A2993 RMK A01 T01491010  RH  034%=      5-min Rain = 0
KCO1 190210Z 32011KT 15/M01 A2993 RMK A01 T01491011  RH  033%=      5-min Rain = 0
KCO1 190211Z 32009KT 15/M01 A2993 RMK A01 T01481011  RH  033%=      5-min Rain = 0
KCO1 190212Z 32010KT 15/M01 A2993 RMK A01 T01491011  RH  033%=      5-min Rain = 0
KCO1 190213Z 32009KT 15/M01 A2993 RMK A01 T01481012  RH  033%=      5-min Rain = 0
KCO1 190214Z 32009KT 15/M01 A2993 RMK A01 T01491011  RH  033%=      5-min Rain = 0
KCO1 190215Z 31011KT 15/M01 A2994 RMK A01 T01491012  RH  033%=      5-min Rain = 0
KCO1 190216Z 32010KT 15/M01 A2994 RMK A01 T01491013  RH  033%=      5-min Rain = 0
KCO1 190217Z 32010KT 15/M01 A2994 RMK A01 T01491013  RH  033%=      5-min Rain = 0
KCO1 190218Z 32010KT 15/M01 A2994 RMK A01 T01491013  RH  033%=      5-min Rain = 0
KCO1 190219Z 32010KT 15/M01 A2994 RMK A01 T01491013  RH  033%=      5-min Rain = 0
KCO1 190220Z 32009KT 15/M01 A2994 RMK A01 T01501013  RH  033%=      5-min Rain = 0
KCO1 190221Z 32009KT 15/M01 A2994 RMK A01 T01491014  RH  033%=      5-min Rain = 0
KCO1 190222Z 32011KT 15/M01 A2994 RMK A01 T01491014  RH  033%=      5-min Rain = 0
KCO1 190223Z 32010G15KT 15/M02 A2994 RMK A01 T01501015  RH  032%=      5-min Rain = 0
KCO1 190224Z 32009KT 15/M02 A2994 RMK A01 T01491015  RH  032%=      5-min Rain = 0
KCO1 190225Z 32009KT 15/M02 A2994 RMK A01 T01501015  RH  032%=      5-min Rain = 0
KCO1 190226Z 32010KT 15/M02 A2994 RMK A01 T01501015  RH  032%=      5-min Rain = 0
KCO1 190227Z 32011KT 15/M02 A2994 RMK A01 T01491016  RH  032%=      5-min Rain = 0
KCO1 190228Z 31010KT 15/M02 A2994 RMK A01 T01491017  RH  032%=      5-min Rain = 0
KCO1 190229Z 32010KT 15/M02 A2995 RMK A01 T01491017  RH  032%=      5-min Rain = 0
KCO1 190230Z 32010KT 15/M02 A2995 RMK A01 T01491017  RH  032%=      5-min Rain = 0
KCO1 190231Z 32011KT 15/M02 A2995 RMK A01 T01491018  RH  032%=      5-min Rain = 0
KCO1 190232Z 32009KT 15/M02 A2995 RMK A01 T01491018  RH  032%=      5-min Rain = 0
KCO1 190233Z 32011KT 15/M02 A2995 RMK A01 T01491019  RH  031%=      5-min Rain = 0
KCO1 190234Z 32011KT 15/M02 A2995 RMK A01 T01491020  RH  031%=      5-min Rain = 0
KCO1 190235Z 31010KT 15/M02 A2995 RMK A01 T01491021  RH  031%=      5-min Rain = 0
KCO1 190236Z 32011KT 15/M02 A2995 RMK A01 T01491021  RH  031%=      5-min Rain = 0
KCO1 190237Z 32009KT 15/M02 A2995 RMK A01 T01491021  RH  031%=      5-min Rain = 0
KCO1 190238Z 31010KT 15/M02 A2995 RMK A01 T01481022  RH  031%=      5-min Rain = 0
KCO1 190239Z 32009KT 15/M02 A2995 RMK A01 T01491022  RH  031%=      5-min Rain = 0
KCO1 190240Z 31011KT 15/M02 A2995 RMK A01 T01481022  RH  031%=      5-min Rain = 0
KCO1 190241Z 32011KT 15/M02 A2995 RMK A01 T01481022  RH  031%=      5-min Rain = 0
KCO1 190242Z 32011KT 15/M02 A2995 RMK A01 T01481023  RH  031%=      5-min Rain = 0
KCO1 190243Z 32010KT 15/M02 A2995 RMK A01 T01481024  RH  031%=      5-min Rain = 0
KCO1 190244Z 31010KT 15/M02 A2995 RMK A01 T01481024  RH  030%=      5-min Rain = 0
KCO1 190245Z 31010KT 15/M03 A2995 RMK A01 T01481025  RH  030%=      5-min Rain = 0
KCO1 190246Z 32012KT 15/M03 A2995 RMK A01 T01481026  RH  030%=      5-min Rain = 0
KCO1 190247Z 32011KT 15/M03 A2995 RMK A01 T01481027  RH  030%=      5-min Rain = 0
KCO1 190248Z 32011KT 15/M03 A2995 RMK A01 T01491028  RH  030%=      5-min Rain = 0
KCO1 190249Z 32012KT 15/M03 A2995 RMK A01 T01491028  RH  029%=      5-min Rain = 0
KCO1 190250Z 32010KT 15/M03 A2995 RMK A01 T01491028  RH  029%=      5-min Rain = 0
KCO1 190251Z 32011KT 15/M03 A2995 RMK A01 T01481028  RH  030%=      5-min Rain = 0
KCO1 190252Z 32012G17KT 15/M03 A2995 RMK A01 T01481029  RH  029%=      5-min Rain = 0
KCO1 190253Z 32014KT 15/M03 A2995 RMK A01 T01481030  RH  029%=      5-min Rain = 0
KCO1 190254Z 32012KT 15/M03 A2996 RMK A01 T01481032  RH  029%=      5-min Rain = 0
KCO1 190255Z 32014KT 15/M03 A2996 RMK A01 T01481033  RH  029%=      5-min Rain = 0
KCO1 190256Z 32015KT 15/M03 A2996 RMK A01 T01491034  RH  028%=      5-min Rain = 0
KCO1 190257Z 32012KT 15/M03 A2996 RMK A01 T01501034  RH  028%=      5-min Rain = 0
KCO1 190258Z 32015KT 15/M04 A2996 RMK A01 T01491035  RH  028%=      5-min Rain = 0
KCO1 190259Z 32015KT 15/M03 A2996 RMK A01 T01501034  RH  028%=      5-min Rain = 0
KCO1 190300Z 33013KT 15/M04 A2996 RMK A01 T01491035  RH  028%=      5-min Rain = 0
KCO1 190301Z 32015KT 15/M04 A2996 RMK A01 T01491035  RH  028%=      5-min Rain = 0
KCO1 190302Z 33015KT 15/M04 A2996 RMK A01 T01491035  RH  028%=      5-min Rain = 0
KCO1 190303Z 32014KT 15/M04 A2996 RMK A01 T01491036  RH  028%=      5-min Rain = 0
KCO1 190304Z 32016KT 15/M04 A2996 RMK A01 T01491036  RH  028%=      5-min Rain = 0
KCO1 190305Z 32016KT 15/M04 A2996 RMK A01 T01491036  RH  028%=      5-min Rain = 0
KCO1 190306Z 32013KT 15/M04 A2997 RMK A01 T01501037  RH  027%=      5-min Rain = 0
KCO1 190307Z 32013KT 15/M04 A2997 RMK A01 T01501037  RH  027%=      5-min Rain = 0
KCO1 190308Z 32014KT 15/M04 A2997 RMK A01 T01501037  RH  027%=      5-min Rain = 0
KCO1 190309Z 32015KT 15/M04 A2997 RMK A01 T01501038  RH  027%=      5-min Rain = 0
KCO1 190310Z 32013KT 15/M04 A2997 RMK A01 T01511038  RH  027%=      5-min Rain = 0
KCO1 190311Z 32013KT 15/M04 A2997 RMK A01 T01511037  RH  027%=      5-min Rain = 0
KCO1 190312Z 32012KT 15/M04 A2997 RMK A01 T01511038  RH  027%=      5-min Rain = 0
KCO1 190313Z 32012KT 15/M04 A2997 RMK A01 T01511037  RH  027%=      5-min Rain = 0
KCO1 190314Z 32013KT 15/M04 A2997 RMK A01 T01501037  RH  027%=      5-min Rain = 0
KCO1 190315Z 32013KT 15/M04 A2997 RMK A01 T01501037  RH  027%=      5-min Rain = 0
KCO1 190316Z 32013KT 15/M04 A2997 RMK A01 T01501038  RH  027%=      5-min Rain = 0
KCO1 190317Z 32013KT 15/M04 A2997 RMK A01 T01501038  RH  027%=      5-min Rain = 0
KCO1 190318Z 32011KT 15/M04 A2997 RMK A01 T01501037  RH  027%=      5-min Rain = 0
KCO1 190319Z 32013KT 15/M04 A2997 RMK A01 T01491037  RH  027%=      5-min Rain = 0
KCO1 190320Z 32012KT 15/M04 A2998 RMK A01 T01491038  RH  027%=      5-min Rain = 0
KCO1 190321Z 32012KT 15/M04 A2998 RMK A01 T01491039  RH  027%=      5-min Rain = 0
KCO1 190322Z 31013KT 15/M04 A2998 RMK A01 T01491039  RH  027%=      5-min Rain = 0
KCO1 190323Z 32012KT 15/M04 A2998 RMK A01 T01491039  RH  027%=      5-min Rain = 0
KCO1 190324Z 32011KT 15/M04 A2998 RMK A01 T01491040  RH  027%=      5-min Rain = 0
KCO1 190325Z 31011KT 15/M04 A2998 RMK A01 T01501039  RH  027%=      5-min Rain = 0
KCO1 190326Z 32010KT 15/M04 A2998 RMK A01 T01491039  RH  027%=      5-min Rain = 0
KCO1 190327Z 31010KT 15/M04 A2998 RMK A01 T01481038  RH  027%=      5-min Rain = 0
KCO1 190328Z 31011KT 15/M04 A2998 RMK A01 T01481038  RH  027%=      5-min Rain = 0
KCO1 190329Z 31011KT 15/M04 A2998 RMK A01 T01481038  RH  027%=      5-min Rain = 0
KCO1 190330Z 31011KT 15/M04 A2999 RMK A01 T01481038  RH  027%=      5-min Rain = 0
KCO1 190331Z 31010KT 15/M04 A2999 RMK A01 T01481038  RH  027%=      5-min Rain = 0
KCO1 190332Z 31011KT 15/M04 A2999 RMK A01 T01481038  RH  027%=      5-min Rain = 0
KCO1 190333Z 31011KT 15/M04 A2999 RMK A01 T01471039  RH  027%=      5-min Rain = 0
KCO1 190334Z 31009KT 15/M04 A2999 RMK A01 T01471039  RH  027%=      5-min Rain = 0
KCO1 190335Z 31010KT 15/M04 A2999 RMK A01 T01471039  RH  027%=      5-min Rain = 0
KCO1 190336Z 31010KT 15/M04 A2999 RMK A01 T01471040  RH  027%=      5-min Rain = 0
KCO1 190337Z 31009KT 15/M04 A30 RMK A01 T01471039  RH  027%=      5-min Rain = 0
KCO1 190338Z 31011KT 15/M04 A30 RMK A01 T01481039  RH  027%=      5-min Rain = 0
KCO1 190339Z 31009KT 15/M04 A30 RMK A01 T01471039  RH  027%=      5-min Rain = 0
KCO1 190340Z 31010KT 15/M04 A30 RMK A01 T01471040  RH  027%=      5-min Rain = 0
KCO1 190341Z 30010KT 15/M04 A30 RMK A01 T01471040  RH  027%=      5-min Rain = 0
KCO1 190342Z 31011KT 15/M04 A30 RMK A01 T01471039  RH  027%=      5-min Rain = 0
KCO1 190343Z 31010KT 15/M04 A30 RMK A01 T01471040  RH  027%=      5-min Rain = 0
KCO1 190344Z 31012KT 15/M04 A30 RMK A01 T01471040  RH  027%=      5-min Rain = 0
KCO1 190345Z 31011KT 15/M04 A3001 RMK A01 T01481042  RH  027%=      5-min Rain = 0
KCO1 190346Z 31011KT 15/M04 A3001 RMK A01 T01481042  RH  027%=      5-min Rain = 0
KCO1 190347Z 31010KT 15/M04 A3001 RMK A01 T01481041  RH  027%=      5-min Rain = 0
KCO1 190348Z 31010KT 15/M04 A3001 RMK A01 T01481041  RH  027%=      5-min Rain = 0
KCO1 190349Z 31009KT 15/M04 A3001 RMK A01 T01481041  RH  027%=      5-min Rain = 0
KCO1 190350Z 31009KT 15/M04 A3001 RMK A01 T01471040  RH  027%=      5-min Rain = 0
KCO1 190351Z 32008KT 15/M04 A3001 RMK A01 T01461040  RH  027%=      5-min Rain = 0
KCO1 190352Z 31009KT 15/M04 A3001 RMK A01 T01461039  RH  028%=      5-min Rain = 0
KCO1 190353Z 31010KT 15/M04 A3001 RMK A01 T01461039  RH  028%=      5-min Rain = 0
KCO1 190354Z 31010KT 15/M04 A3002 RMK A01 T01461040  RH  027%=      5-min Rain = 0
KCO1 190355Z 32010KT 15/M04 A3002 RMK A01 T01461041  RH  027%=      5-min Rain = 0
KCO1 190356Z 31011KT 15/M04 A3002 RMK A01 T01461041  RH  027%=      5-min Rain = 0
KCO1 190357Z 31008KT 15/M04 A3002 RMK A01 T01461041  RH  027%=      5-min Rain = 0
KCO1 190358Z 32010KT 15/M04 A3002 RMK A01 T01461041  RH  027%=      5-min Rain = 0
KCO1 190359Z 32009KT 15/M04 A3002 RMK A01 T01461040  RH  028%=      5-min Rain = 0
KCO1 190400Z 32010KT 15/M04 A3002 RMK A01 T01451040  RH  028%=      5-min Rain = 0
KCO1 190401Z 31009KT 15/M04 A3002 RMK A01 T01451040  RH  028%=      5-min Rain = 0
KCO1 190402Z 32009KT 15/M04 A3002 RMK A01 T01451040  RH  028%=      5-min Rain = 0
KCO1 190403Z 31011KT 15/M04 A3003 RMK A01 T01451041  RH  027%=      5-min Rain = 0
KCO1 190404Z 31013KT 15/M04 A3003 RMK A01 T01451043  RH  027%=      5-min Rain = 0
KCO1 190405Z 31011KT 15/M04 A3003 RMK A01 T01461043  RH  027%=      5-min Rain = 0
KCO1 190406Z 31011KT 15/M04 A3003 RMK A01 T01461043  RH  027%=      5-min Rain = 0
KCO1 190407Z 31015G21KT 15/M05 A3003 RMK A01 T01461045  RH  026%=      5-min Rain = 0
KCO1 190408Z 32017G23KT 15/M05 A3003 RMK A01 T01471049  RH  025%=      5-min Rain = 0
KCO1 190409Z 32016G22KT 15/M05 A3003 RMK A01 T01481053  RH  025%=      5-min Rain = 0
KCO1 190410Z 31018G25KT 15/M06 A3003 RMK A01 T01481056  RH  024%=      5-min Rain = 0
KCO1 190411Z 33019KT 15/M06 A3003 RMK A01 T01491059  RH  023%=      5-min Rain = 0
KCO1 190412Z 30017G22KT 15/M06 A3003 RMK A01 T01491058  RH  023%=      5-min Rain = 0
KCO1 190413Z 31012KT 15/M06 A3004 RMK A01 T01491056  RH  024%=      5-min Rain = 0
KCO1 190414Z 32013KT 15/M05 A3004 RMK A01 T01481054  RH  024%=      5-min Rain = 0
KCO1 190415Z 32014KT 15/M06 A3004 RMK A01 T01471056  RH  024%=      5-min Rain = 0
KCO1 190416Z 32014KT 15/M06 A3004 RMK A01 T01471057  RH  024%=      5-min Rain = 0
KCO1 190417Z 32015KT 15/M06 A3004 RMK A01 T01461059  RH  024%=      5-min Rain = 0
KCO1 190418Z 32014KT 15/M06 A3004 RMK A01 T01461062  RH  023%=      5-min Rain = 0
KCO1 190419Z 31016G22KT 15/M06 A3004 RMK A01 T01461062  RH  023%=      5-min Rain = 0
KCO1 190420Z 32019G27KT 15/M07 A3004 RMK A01 T01451068  RH  022%=      5-min Rain = 0
KCO1 190421Z 32018KT 15/M07 A3004 RMK A01 T01461072  RH  021%=      5-min Rain = 0
KCO1 190422Z 32018KT 15/M07 A3004 RMK A01 T01471072  RH  021%=      5-min Rain = 0
KCO1 190423Z 31017KT 15/M07 A3005 RMK A01 T01471072  RH  021%=      5-min Rain = 0
KCO1 190424Z 32018G27KT 15/M07 A3005 RMK A01 T01461072  RH  021%=      5-min Rain = 0
KCO1 190425Z 32018G23KT 15/M07 A3005 RMK A01 T01461072  RH  021%=      5-min Rain = 0
KCO1 190426Z 32020KT 15/M07 A3005 RMK A01 T01461072  RH  022%=      5-min Rain = 0
KCO1 190427Z 31019G24KT 15/M07 A3005 RMK A01 T01461071  RH  022%=      5-min Rain = 0
KCO1 190428Z 31017KT 15/M07 A3005 RMK A01 T01451070  RH  022%=      5-min Rain = 0
KCO1 190429Z 31017KT 15/M07 A3005 RMK A01 T01451070  RH  022%=      5-min Rain = 0
KCO1 190430Z 32016G23KT 14/M07 A3006 RMK A01 T01441069  RH  022%=      5-min Rain = 0
KCO1 190431Z 32018G23KT 14/M07 A3006 RMK A01 T01441068  RH  022%=      5-min Rain = 0
KCO1 190432Z 32022G27KT 15/M07 A3005 RMK A01 T01451067  RH  023%=      5-min Rain = 0
KCO1 190433Z 32020KT 15/M07 A3005 RMK A01 T01451066  RH  023%=      5-min Rain = 0
KCO1 190434Z 32016G21KT 14/M07 A3005 RMK A01 T01441066  RH  023%=      5-min Rain = 0
KCO1 190435Z 32019KT 14/M07 A3005 RMK A01 T01441065  RH  023%=      5-min Rain = 0
KCO1 190436Z 32018G23KT 14/M06 A3005 RMK A01 T01441064  RH  023%=      5-min Rain = 0
KCO1 190437Z 32019G27KT 14/M06 A3005 RMK A01 T01431064  RH  023%=      5-min Rain = 0
KCO1 190438Z 32021G26KT 14/M06 A3005 RMK A01 T01431064  RH  023%=      5-min Rain = 0
KCO1 190439Z 33019G25KT 14/M06 A3005 RMK A01 T01431064  RH  023%=      5-min Rain = 0
KCO1 190440Z 33021G27KT 14/M06 A3005 RMK A01 T01431064  RH  023%=      5-min Rain = 0
KCO1 190441Z 33022G27KT 14/M06 A3005 RMK A01 T01431064  RH  023%=      5-min Rain = 0
KCO1 190442Z 33015G20KT 14/M06 A3006 RMK A01 T01431063  RH  023%=      5-min Rain = 0
KCO1 190443Z 33020G25KT 14/M06 A3006 RMK A01 T01431062  RH  024%=      5-min Rain = 0
KCO1 190444Z 33017KT 14/M06 A3006 RMK A01 T01431063  RH  024%=      5-min Rain = 0
KCO1 190445Z 32017KT 14/M06 A3006 RMK A01 T01421062  RH  024%=      5-min Rain = 0
KCO1 190446Z 33018KT 14/M06 A3006 RMK A01 T01421062  RH  024%=      5-min Rain = 0
KCO1 190447Z 32018KT 14/M06 A3006 RMK A01 T01421062  RH  024%=      5-min Rain = 0
KCO1 190448Z 33018KT 14/M06 A3006 RMK A01 T01411062  RH  024%=      5-min Rain = 0
KCO1 190449Z 33018KT 14/M06 A3006 RMK A01 T01411062  RH  024%=      5-min Rain = 0
KCO1 190450Z 33017KT 14/M06 A3006 RMK A01 T01411062  RH  024%=      5-min Rain = 0
KCO1 190451Z 33014KT 14/M06 A3007 RMK A01 T01411062  RH  024%=      5-min Rain = 0
KCO1 190452Z 33017KT 14/M06 A3007 RMK A01 T01411061  RH  024%=      5-min Rain = 0
KCO1 190453Z 33017KT 14/M06 A3007 RMK A01 T01411061  RH  024%=      5-min Rain = 0
KCO1 190454Z 33016KT 14/M06 A3007 RMK A01 T01401061  RH  024%=      5-min Rain = 0
KCO1 190455Z 33019G24KT 14/M06 A3007 RMK A01 T01401061  RH  024%=      5-min Rain = 0
KCO1 190456Z 33015KT 14/M06 A3007 RMK A01 T01401061  RH  024%=      5-min Rain = 0
KCO1 190457Z 33014KT 14/M06 A3007 RMK A01 T01391061  RH  024%=      5-min Rain = 0
KCO1 190458Z 33012KT 14/M06 A3008 RMK A01 T01391060  RH  025%=      5-min Rain = 0
KCO1 190459Z 32016G22KT 14/M06 A3008 RMK A01 T01381059  RH  025%=      5-min Rain = 0
KCO1 190500Z 33017KT 14/M06 A3008 RMK A01 T01371059  RH  025%=      5-min Rain = 0
KCO1 190501Z 33014KT 14/M06 A3008 RMK A01 T01381059  RH  025%=      5-min Rain = 0
KCO1 190502Z 32016G22KT 14/M06 A3008 RMK A01 T01381059  RH  025%=      5-min Rain = 0
KCO1 190503Z 32022G29KT 14/M06 A3008 RMK A01 T01371060  RH  025%=      5-min Rain = 0
KCO1 190504Z 32016G21KT 14/M06 A3008 RMK A01 T01381060  RH  025%=      5-min Rain = 0
KCO1 190505Z 32017KT 14/M06 A3008 RMK A01 T01381059  RH  025%=      5-min Rain = 0
KCO1 190506Z 32016KT 14/M06 A3008 RMK A01 T01371059  RH  025%=      5-min Rain = 0
KCO1 190507Z 32018KT 14/M06 A3008 RMK A01 T01371059  RH  025%=      5-min Rain = 0
KCO1 190508Z 32017G22KT 14/M06 A3008 RMK A01 T01371060  RH  025%=      5-min Rain = 0
KCO1 190509Z 32018KT 14/M06 A3008 RMK A01 T01371060  RH  025%=      5-min Rain = 0
KCO1 190510Z 32020G27KT 14/M06 A3008 RMK A01 T01371061  RH  025%=      5-min Rain = 0
KCO1 190511Z 33022KT 14/M06 A3008 RMK A01 T01361062  RH  025%=      5-min Rain = 0
KCO1 190512Z 32021G26KT 14/M06 A3008 RMK A01 T01361063  RH  024%=      5-min Rain = 0
KCO1 190513Z 33021KT 14/M06 A3008 RMK A01 T01361064  RH  024%=      5-min Rain = 0
KCO1 190514Z 33021G26KT 14/M06 A3009 RMK A01 T01361064  RH  024%=      5-min Rain = 0
KCO1 190515Z 33020G25KT 14/M06 A3008 RMK A01 T01361064  RH  025%=      5-min Rain = 0
KCO1 190516Z 33020KT 14/M06 A3009 RMK A01 T01351064  RH  025%=      5-min Rain = 0
KCO1 190517Z 33020KT 13/M06 A3009 RMK A01 T01341064  RH  025%=      5-min Rain = 0
KCO1 190518Z 33020G25KT 13/M07 A3009 RMK A01 T01341065  RH  024%=      5-min Rain = 0
KCO1 190519Z 33019G24KT 13/M07 A3009 RMK A01 T01341066  RH  024%=      5-min Rain = 0
KCO1 190520Z 33019KT 13/M07 A3009 RMK A01 T01341066  RH  024%=      5-min Rain = 0
KCO1 190521Z 32021KT 13/M07 A3009 RMK A01 T01331065  RH  025%=      5-min Rain = 0
KCO1 190522Z 33019G25KT 13/M07 A3009 RMK A01 T01331066  RH  024%=      5-min Rain = 0
KCO1 190523Z 33019G27KT 13/M07 A3009 RMK A01 T01331066  RH  024%=      5-min Rain = 0
KCO1 190524Z 32018KT 13/M07 A3009 RMK A01 T01331066  RH  024%=      5-min Rain = 0
KCO1 190525Z 32022G28KT 13/M07 A3009 RMK A01 T01321066  RH  025%=      5-min Rain = 0
KCO1 190526Z 32020KT 13/M07 A3009 RMK A01 T01321067  RH  025%=      5-min Rain = 0
KCO1 190527Z 33016KT 13/M07 A3009 RMK A01 T01321067  RH  025%=      5-min Rain = 0
KCO1 190528Z 33019KT 13/M07 A3009 RMK A01 T01311067  RH  025%=      5-min Rain = 0
KCO1 190529Z 33015G20KT 13/M07 A301 RMK A01 T01311066  RH  025%=      5-min Rain = 0
KCO1 190530Z 33018G24KT 13/M07 A301 RMK A01 T01301066  RH  025%=      5-min Rain = 0
KCO1 190531Z 33018KT 13/M07 A301 RMK A01 T01301067  RH  025%=      5-min Rain = 0
KCO1 190532Z 33017G22KT 13/M07 A301 RMK A01 T01291067  RH  025%=      5-min Rain = 0
KCO1 190533Z 33017KT 13/M07 A301 RMK A01 T01291067  RH  025%=      5-min Rain = 0
KCO1 190534Z 32017KT 13/M07 A301 RMK A01 T01281067  RH  025%=      5-min Rain = 0
KCO1 190535Z 33015KT 13/M07 A301 RMK A01 T01281067  RH  025%=      5-min Rain = 0
KCO1 190536Z 32016G21KT 13/M07 A301 RMK A01 T01271066  RH  025%=      5-min Rain = 0
KCO1 190537Z 33019KT 13/M07 A301 RMK A01 T01271067  RH  025%=      5-min Rain = 0
KCO1 190538Z 33018KT 13/M07 A301 RMK A01 T01261068  RH  025%=      5-min Rain = 0
KCO1 190539Z 33016G21KT 13/M07 A301 RMK A01 T01261068  RH  025%=      5-min Rain = 0
KCO1 190540Z 32013KT 13/M07 A3011 RMK A01 T01261067  RH  025%=      5-min Rain = 0
KCO1 190541Z 33015KT 12/M07 A3011 RMK A01 T01241067  RH  026%=      5-min Rain = 0
KCO1 190542Z 33016KT 12/M07 A3011 RMK A01 T01231067  RH  026%=      5-min Rain = 0
KCO1 190543Z 33016KT 12/M07 A3011 RMK A01 T01231068  RH  026%=      5-min Rain = 0
KCO1 190544Z 33017KT 12/M07 A3011 RMK A01 T01231068  RH  026%=      5-min Rain = 0
KCO1 190545Z 33014KT 12/M07 A3011 RMK A01 T01231068  RH  026%=      5-min Rain = 0
KCO1 190546Z 33017KT 12/M07 A3011 RMK A01 T01221067  RH  026%=      5-min Rain = 0
KCO1 190547Z 33017G27KT 12/M07 A3011 RMK A01 T01221067  RH  026%=      5-min Rain = 0
KCO1 190548Z 33013KT 12/M07 A3011 RMK A01 T01211067  RH  026%=      5-min Rain = 0
KCO1 190549Z 33016KT 12/M07 A3011 RMK A01 T01211067  RH  026%=      5-min Rain = 0
KCO1 190550Z 33018KT 12/M07 A3012 RMK A01 T01201066  RH  027%=      5-min Rain = 0
KCO1 190551Z 33018KT 12/M07 A3012 RMK A01 T01201066  RH  027%=      5-min Rain = 0
KCO1 190552Z 33016KT 12/M07 A3012 RMK A01 T01201066  RH  027%=      5-min Rain = 0
KCO1 190553Z 33015KT 12/M07 A3012 RMK A01 T01201066  RH  027%=      5-min Rain = 0
KCO1 190554Z 33014KT 12/M07 A3012 RMK A01 T01191066  RH  027%=      5-min Rain = 0
KCO1 190555Z 33014G19KT 12/M07 A3012 RMK A01 T01181065  RH  027%=      5-min Rain = 0
KCO1 190556Z 33012KT 12/M07 A3012 RMK A01 T01181065  RH  027%=      5-min Rain = 0
KCO1 190557Z 33013KT 12/M07 A3012 RMK A01 T01171065  RH  027%=      5-min Rain = 0
KCO1 190558Z 33013KT 12/M07 A3012 RMK A01 T01161065  RH  028%=      5-min Rain = 0
KCO1 190559Z 33013KT 12/M06 A3012 RMK A01 T01161064  RH  028%=      5-min Rain = 0

Page generated in 0.3007 seconds.